<?xml version="1.0" encoding="UTF-8"?>
<gpx creator="Patrick Hooper" version="1.1" xmlns="http://www.topografix.com/GPX/1/1" xmlns:xsi="http://www.w3.org/2001/XMLSchema-instance" xsi:schemaLocation="http://www.topografix.com/GPX/1/1 http://www.topografix.com/GPX/1/1/gpx.xsd http://www.garmin.com/xmlschemas/GpxExtensions/v3 http://www.garmin.com/xmlschemas/GpxExtensionsv3.xsd http://www.garmin.com/xmlschemas/TrackPointExtension/v1 http://www.garmin.com/xmlschemas/TrackPointExtensionv1.xsd">
  <metadata>
    <name>Activity</name>
  </metadata>
  <trk>
    <name>a</name>
    <trkseg>
      <trkpt lat="31.607454067347664" lon="34.89221200346947">
        <ele>251</ele>
        <time>2026-07-06T14:53:42.255Z</time>
      </trkpt>
      <trkpt lat="31.607508147490464" lon="34.892312398541044">
        <ele>251</ele>
        <time>2026-07-06T14:53:43.255Z</time>
      </trkpt>
      <trkpt lat="31.60767458247411" lon="34.89218879250114">
        <ele>251</ele>
        <time>2026-07-06T14:53:44.255Z</time>
      </trkpt>
      <trkpt lat="31.607729157978202" lon="34.892137383493875">
        <ele>251</ele>
        <time>2026-07-06T14:53:45.255Z</time>
      </trkpt>
      <trkpt lat="31.607634535602507" lon="34.89180043097885">
        <ele>251</ele>
        <time>2026-07-06T14:53:46.255Z</time>
      </trkpt>
      <trkpt lat="31.60782806443784" lon="34.89180508759182">
        <ele>249</ele>
        <time>2026-07-06T14:53:47.255Z</time>
      </trkpt>
      <trkpt lat="31.608261688238272" lon="34.89186562356053">
        <ele>249</ele>
        <time>2026-07-06T14:53:48.255Z</time>
      </trkpt>
      <trkpt lat="31.608469186912533" lon="34.891824459101805">
        <ele>249</ele>
        <time>2026-07-06T14:53:49.255Z</time>
      </trkpt>
      <trkpt lat="31.6093647467203" lon="34.89170003440306">
        <ele>250</ele>
        <time>2026-07-06T14:53:50.255Z</time>
      </trkpt>
      <trkpt lat="31.609565726136395" lon="34.891548042555485">
        <ele>256</ele>
        <time>2026-07-06T14:53:51.255Z</time>
      </trkpt>
      <trkpt lat="31.60982593766956" lon="34.89118315036259">
        <ele>256</ele>
        <time>2026-07-06T14:53:52.255Z</time>
      </trkpt>
      <trkpt lat="31.610056719408707" lon="34.89083539450546">
        <ele>251</ele>
        <time>2026-07-06T14:53:53.255Z</time>
      </trkpt>
      <trkpt lat="31.610440424318025" lon="34.89047068857709">
        <ele>254</ele>
        <time>2026-07-06T14:53:54.255Z</time>
      </trkpt>
      <trkpt lat="31.6107144194256" lon="34.88992344342001">
        <ele>251</ele>
        <time>2026-07-06T14:53:55.255Z</time>
      </trkpt>
      <trkpt lat="31.611192932975133" lon="34.889045951270596">
        <ele>251</ele>
        <time>2026-07-06T14:53:56.255Z</time>
      </trkpt>
      <trkpt lat="31.61168094601514" lon="34.88846089441614">
        <ele>251</ele>
        <time>2026-07-06T14:53:57.255Z</time>
      </trkpt>
      <trkpt lat="31.612246817624126" lon="34.8879568626275">
        <ele>248</ele>
        <time>2026-07-06T14:53:58.255Z</time>
      </trkpt>
      <trkpt lat="31.61282889424627" lon="34.887599979808925">
        <ele>247</ele>
        <time>2026-07-06T14:53:59.255Z</time>
      </trkpt>
      <trkpt lat="31.612970827809814" lon="34.88753795372407">
        <ele>244</ele>
        <time>2026-07-06T14:54:00.255Z</time>
      </trkpt>
      <trkpt lat="31.61329585939562" lon="34.887460840213166">
        <ele>244</ele>
        <time>2026-07-06T14:54:01.255Z</time>
      </trkpt>
      <trkpt lat="31.613361983299896" lon="34.88760091113152">
        <ele>247</ele>
        <time>2026-07-06T14:54:02.255Z</time>
      </trkpt>
      <trkpt lat="31.6133794634792" lon="34.88767504885696">
        <ele>247</ele>
        <time>2026-07-06T14:54:03.255Z</time>
      </trkpt>
      <trkpt lat="31.6133794634792" lon="34.88767504885696">
        <ele>247</ele>
        <time>2026-07-06T14:54:04.255Z</time>
      </trkpt>
      <trkpt lat="31.6134098532813" lon="34.88780393945733">
        <ele>247</ele>
        <time>2026-07-06T14:54:05.255Z</time>
      </trkpt>
      <trkpt lat="31.61355290443196" lon="34.88823681819968">
        <ele>247</ele>
        <time>2026-07-06T14:54:06.255Z</time>
      </trkpt>
      <trkpt lat="31.613592951303563" lon="34.88850690175236">
        <ele>249</ele>
        <time>2026-07-06T14:54:07.255Z</time>
      </trkpt>
      <trkpt lat="31.613602823323074" lon="34.88882392396384">
        <ele>249</ele>
        <time>2026-07-06T14:54:08.255Z</time>
      </trkpt>
      <trkpt lat="31.613765991041795" lon="34.88942593088953">
        <ele>250</ele>
        <time>2026-07-06T14:54:09.255Z</time>
      </trkpt>
      <trkpt lat="31.61391593397966" lon="34.88980982206337">
        <ele>250</ele>
        <time>2026-07-06T14:54:10.255Z</time>
      </trkpt>
      <trkpt lat="31.613998821690654" lon="34.889920835716744">
        <ele>250</ele>
        <time>2026-07-06T14:54:11.255Z</time>
      </trkpt>
      <trkpt lat="31.614108904021432" lon="34.890028869137815">
        <ele>250</ele>
        <time>2026-07-06T14:54:12.255Z</time>
      </trkpt>
      <trkpt lat="31.61448888364037" lon="34.89031292252942">
        <ele>253</ele>
        <time>2026-07-06T14:54:13.255Z</time>
      </trkpt>
      <trkpt lat="31.614857873652678" lon="34.89053196960386">
        <ele>253</ele>
        <time>2026-07-06T14:54:14.255Z</time>
      </trkpt>
      <trkpt lat="31.61524884287824" lon="34.89059194677901">
        <ele>253</ele>
        <time>2026-07-06T14:54:15.255Z</time>
      </trkpt>
      <trkpt lat="31.615698857956353" lon="34.890617651282646">
        <ele>255</ele>
        <time>2026-07-06T14:54:16.255Z</time>
      </trkpt>
      <trkpt lat="31.616281865901094" lon="34.89073388034256">
        <ele>259</ele>
        <time>2026-07-06T14:54:17.255Z</time>
      </trkpt>
      <trkpt lat="31.616434975335785" lon="34.89079795533712">
        <ele>259</ele>
        <time>2026-07-06T14:54:18.255Z</time>
      </trkpt>
      <trkpt lat="31.616832836348554" lon="34.89104196185713">
        <ele>260</ele>
        <time>2026-07-06T14:54:19.255Z</time>
      </trkpt>
      <trkpt lat="31.61718990543164" lon="34.89117998386577">
        <ele>262</ele>
        <time>2026-07-06T14:54:20.255Z</time>
      </trkpt>
      <trkpt lat="31.61752890685638" lon="34.89141896124376">
        <ele>262</ele>
        <time>2026-07-06T14:54:21.255Z</time>
      </trkpt>
      <trkpt lat="31.617804950873666" lon="34.891689976119025">
        <ele>262</ele>
        <time>2026-07-06T14:54:22.255Z</time>
      </trkpt>
      <trkpt lat="31.618089935587868" lon="34.89181495961133">
        <ele>268</ele>
        <time>2026-07-06T14:54:23.255Z</time>
      </trkpt>
      <trkpt lat="31.61827489625532" lon="34.89198185262043">
        <ele>268</ele>
        <time>2026-07-06T14:54:24.255Z</time>
      </trkpt>
      <trkpt lat="31.61839298796042" lon="34.892029908866355">
        <ele>268</ele>
        <time>2026-07-06T14:54:25.255Z</time>
      </trkpt>
      <trkpt lat="31.618626936196392" lon="34.89203884956328">
        <ele>268</ele>
        <time>2026-07-06T14:54:26.255Z</time>
      </trkpt>
      <trkpt lat="31.618707961262196" lon="34.89208485689949">
        <ele>274</ele>
        <time>2026-07-06T14:54:27.255Z</time>
      </trkpt>
      <trkpt lat="31.61908998979084" lon="34.892560949010274">
        <ele>274</ele>
        <time>2026-07-06T14:54:28.255Z</time>
      </trkpt>
      <trkpt lat="31.619247942103026" lon="34.8927319398388">
        <ele>275</ele>
        <time>2026-07-06T14:54:29.255Z</time>
      </trkpt>
      <trkpt lat="31.619327849581715" lon="34.89284686504707">
        <ele>275</ele>
        <time>2026-07-06T14:54:30.255Z</time>
      </trkpt>
      <trkpt lat="31.619396953718297" lon="34.892994945339744">
        <ele>275</ele>
        <time>2026-07-06T14:54:31.255Z</time>
      </trkpt>
      <trkpt lat="31.61940590487266" lon="34.89306874905121">
        <ele>275</ele>
        <time>2026-07-06T14:54:32.255Z</time>
      </trkpt>
      <trkpt lat="31.61940590487266" lon="34.89306874905121">
        <ele>275</ele>
        <time>2026-07-06T14:54:33.255Z</time>
      </trkpt>
      <trkpt lat="31.619425824718753" lon="34.89323299139514">
        <ele>275</ele>
        <time>2026-07-06T14:54:34.255Z</time>
      </trkpt>
      <trkpt lat="31.619425824718753" lon="34.89356081694873">
        <ele>278</ele>
        <time>2026-07-06T14:54:35.255Z</time>
      </trkpt>
      <trkpt lat="31.619447990196527" lon="34.893714857706016">
        <ele>278</ele>
        <time>2026-07-06T14:54:36.255Z</time>
      </trkpt>
      <trkpt lat="31.61950182064254" lon="34.893936885012764">
        <ele>282</ele>
        <time>2026-07-06T14:54:37.255Z</time>
      </trkpt>
      <trkpt lat="31.619543916423854" lon="34.89409893514437">
        <ele>282</ele>
        <time>2026-07-06T14:54:38.255Z</time>
      </trkpt>
      <trkpt lat="31.619559935172497" lon="34.89424384894022">
        <ele>282</ele>
        <time>2026-07-06T14:54:39.255Z</time>
      </trkpt>
      <trkpt lat="31.619558817585382" lon="34.894668904572775">
        <ele>282</ele>
        <time>2026-07-06T14:54:40.255Z</time>
      </trkpt>
      <trkpt lat="31.619572973688832" lon="34.894750860961175">
        <ele>282</ele>
        <time>2026-07-06T14:54:41.255Z</time>
      </trkpt>
      <trkpt lat="31.619627921721964" lon="34.8948799422729">
        <ele>282</ele>
        <time>2026-07-06T14:54:42.255Z</time>
      </trkpt>
      <trkpt lat="31.619702986323155" lon="34.894968976713024">
        <ele>282</ele>
        <time>2026-07-06T14:54:43.255Z</time>
      </trkpt>
      <trkpt lat="31.619813999976532" lon="34.89505763862411">
        <ele>282</ele>
        <time>2026-07-06T14:54:44.255Z</time>
      </trkpt>
      <trkpt lat="31.619977540224287" lon="34.895136987309236">
        <ele>282</ele>
        <time>2026-07-06T14:54:45.255Z</time>
      </trkpt>
      <trkpt lat="31.62011798367168" lon="34.895204973858704">
        <ele>282</ele>
        <time>2026-07-06T14:54:46.255Z</time>
      </trkpt>
      <trkpt lat="31.6202079494344" lon="34.89528991047941">
        <ele>282</ele>
        <time>2026-07-06T14:54:47.255Z</time>
      </trkpt>
      <trkpt lat="31.620358823694858" lon="34.895509888876454">
        <ele>273</ele>
        <time>2026-07-06T14:54:48.255Z</time>
      </trkpt>
      <trkpt lat="31.62058699773074" lon="34.89566188072403">
        <ele>273</ele>
        <time>2026-07-06T14:54:49.255Z</time>
      </trkpt>
      <trkpt lat="31.620693913564693" lon="34.89575296407386">
        <ele>273</ele>
        <time>2026-07-06T14:54:50.255Z</time>
      </trkpt>
      <trkpt lat="31.62072986261688" lon="34.89581182366189">
        <ele>273</ele>
        <time>2026-07-06T14:54:51.255Z</time>
      </trkpt>
      <trkpt lat="31.620764880346467" lon="34.8959407187091">
        <ele>276</ele>
        <time>2026-07-06T14:54:52.255Z</time>
      </trkpt>
      <trkpt lat="31.62077195839819" lon="34.89602397894913">
        <ele>276</ele>
        <time>2026-07-06T14:54:53.255Z</time>
      </trkpt>
      <trkpt lat="31.62072986261688" lon="34.89638253814837">
        <ele>276</ele>
        <time>2026-07-06T14:54:54.255Z</time>
      </trkpt>
      <trkpt lat="31.620794123875964" lon="34.896468033562634">
        <ele>276</ele>
        <time>2026-07-06T14:54:55.255Z</time>
      </trkpt>
      <trkpt lat="31.620825230050652" lon="34.89648163087252">
        <ele>276</ele>
        <time>2026-07-06T14:54:56.255Z</time>
      </trkpt>
      <trkpt lat="31.62088502096128" lon="34.89648516989839">
        <ele>276</ele>
        <time>2026-07-06T14:54:57.255Z</time>
      </trkpt>
      <trkpt lat="31.621113940055235" lon="34.89630188561161">
        <ele>276</ele>
        <time>2026-07-06T14:54:58.255Z</time>
      </trkpt>
      <trkpt lat="31.621523908261743" lon="34.89605676150449">
        <ele>276</ele>
        <time>2026-07-06T14:54:59.255Z</time>
      </trkpt>
      <trkpt lat="31.621607913559853" lon="34.89597983425811">
        <ele>276</ele>
        <time>2026-07-06T14:55:00.255Z</time>
      </trkpt>
      <trkpt lat="31.62169191885796" lon="34.89585987990782">
        <ele>269</ele>
        <time>2026-07-06T14:55:01.255Z</time>
      </trkpt>
      <trkpt lat="31.62190183897097" lon="34.89534299586735">
        <ele>269</ele>
        <time>2026-07-06T14:55:02.255Z</time>
      </trkpt>
      <trkpt lat="31.62218291213027" lon="34.89482685688496">
        <ele>263</ele>
        <time>2026-07-06T14:55:03.255Z</time>
      </trkpt>
      <trkpt lat="31.622255927821755" lon="34.89471081408957">
        <ele>263</ele>
        <time>2026-07-06T14:55:04.255Z</time>
      </trkpt>
      <trkpt lat="31.622385940456077" lon="34.894552861777385">
        <ele>263</ele>
        <time>2026-07-06T14:55:05.255Z</time>
      </trkpt>
      <trkpt lat="31.622509992625787" lon="34.8944319761045">
        <ele>263</ele>
        <time>2026-07-06T14:55:06.255Z</time>
      </trkpt>
      <trkpt lat="31.62289686403193" lon="34.894171950835855">
        <ele>253</ele>
        <time>2026-07-06T14:55:07.255Z</time>
      </trkpt>
      <trkpt lat="31.62315986953288" lon="34.893957932903426">
        <ele>253</ele>
        <time>2026-07-06T14:55:08.255Z</time>
      </trkpt>
      <trkpt lat="31.623276843650867" lon="34.893890877676554">
        <ele>253</ele>
        <time>2026-07-06T14:55:09.255Z</time>
      </trkpt>
      <trkpt lat="31.623425855266134" lon="34.89384896815976">
        <ele>253</ele>
        <time>2026-07-06T14:55:10.255Z</time>
      </trkpt>
      <trkpt lat="31.623615845075605" lon="34.89376086504223">
        <ele>253</ele>
        <time>2026-07-06T14:55:11.255Z</time>
      </trkpt>
      <trkpt lat="31.623751818174537" lon="34.89363085240791">
        <ele>258</ele>
        <time>2026-07-06T14:55:12.255Z</time>
      </trkpt>
      <trkpt lat="31.623918897448156" lon="34.8932579508407">
        <ele>253</ele>
        <time>2026-07-06T14:55:13.255Z</time>
      </trkpt>
      <trkpt lat="31.62406697774083" lon="34.892994945339744">
        <ele>253</ele>
        <time>2026-07-06T14:55:14.255Z</time>
      </trkpt>
      <trkpt lat="31.624202950839763" lon="34.8928578546537">
        <ele>253</ele>
        <time>2026-07-06T14:55:15.255Z</time>
      </trkpt>
      <trkpt lat="31.62488095368924" lon="34.89242683855653">
        <ele>247</ele>
        <time>2026-07-06T14:55:16.255Z</time>
      </trkpt>
      <trkpt lat="31.625179908242373" lon="34.892279875850974">
        <ele>247</ele>
        <time>2026-07-06T14:55:17.255Z</time>
      </trkpt>
      <trkpt lat="31.625612228191173" lon="34.89213794228743">
        <ele>245</ele>
        <time>2026-07-06T14:55:18.255Z</time>
      </trkpt>
      <trkpt lat="31.625729947367233" lon="34.89214613792627">
        <ele>245</ele>
        <time>2026-07-06T14:55:19.255Z</time>
      </trkpt>
      <trkpt lat="31.625829971413985" lon="34.89229496327702">
        <ele>245</ele>
        <time>2026-07-06T14:55:20.255Z</time>
      </trkpt>
      <trkpt lat="31.626163943696707" lon="34.89276285974896">
        <ele>257</ele>
        <time>2026-07-06T14:55:21.255Z</time>
      </trkpt>
      <trkpt lat="31.62619989274889" lon="34.89283140509199">
        <ele>257</ele>
        <time>2026-07-06T14:55:22.255Z</time>
      </trkpt>
      <trkpt lat="31.62629377006651" lon="34.89307392149584">
        <ele>257</ele>
        <time>2026-07-06T14:55:23.255Z</time>
      </trkpt>
      <trkpt lat="31.626360266499823" lon="34.893453901114775">
        <ele>260</ele>
        <time>2026-07-06T14:55:24.255Z</time>
      </trkpt>
      <trkpt lat="31.62637516766135" lon="34.893816930662474">
        <ele>260</ele>
        <time>2026-07-06T14:55:25.255Z</time>
      </trkpt>
      <trkpt lat="31.626518777605565" lon="34.894662571579126">
        <ele>264</ele>
        <time>2026-07-06T14:55:26.255Z</time>
      </trkpt>
      <trkpt lat="31.626602782903674" lon="34.89537670974531">
        <ele>267</ele>
        <time>2026-07-06T14:55:27.255Z</time>
      </trkpt>
      <trkpt lat="31.62667263209833" lon="34.89566541974989">
        <ele>267</ele>
        <time>2026-07-06T14:55:28.255Z</time>
      </trkpt>
      <trkpt lat="31.62674192249943" lon="34.896273387140184">
        <ele>271</ele>
        <time>2026-07-06T14:55:29.255Z</time>
      </trkpt>
      <trkpt lat="31.626840456430028" lon="34.896463376949654">
        <ele>271</ele>
        <time>2026-07-06T14:55:30.255Z</time>
      </trkpt>
      <trkpt lat="31.62689279675989" lon="34.896650386526815">
        <ele>271</ele>
        <time>2026-07-06T14:55:31.255Z</time>
      </trkpt>
      <trkpt lat="31.62691943258612" lon="34.89694114544111">
        <ele>276</ele>
        <time>2026-07-06T14:55:32.255Z</time>
      </trkpt>
      <trkpt lat="31.627036779233144" lon="34.89746529379782">
        <ele>277</ele>
        <time>2026-07-06T14:55:33.255Z</time>
      </trkpt>
      <trkpt lat="31.627143136273542" lon="34.89771172175657">
        <ele>279</ele>
        <time>2026-07-06T14:55:34.255Z</time>
      </trkpt>
      <trkpt lat="31.62739012302585" lon="34.8979540518959">
        <ele>279</ele>
        <time>2026-07-06T14:55:35.255Z</time>
      </trkpt>
      <trkpt lat="31.62753149779584" lon="34.89813826750528">
        <ele>279</ele>
        <time>2026-07-06T14:55:36.255Z</time>
      </trkpt>
      <trkpt lat="31.627605631074434" lon="34.89823009591319">
        <ele>279</ele>
        <time>2026-07-06T14:55:37.255Z</time>
      </trkpt>
      <trkpt lat="31.62762686522961" lon="34.8982438794876">
        <ele>279</ele>
        <time>2026-07-06T14:55:38.255Z</time>
      </trkpt>
      <trkpt lat="31.627795993412942" lon="34.898316895179086">
        <ele>279</ele>
        <time>2026-07-06T14:55:39.255Z</time>
      </trkpt>
      <trkpt lat="31.628022863597188" lon="34.89836793165731">
        <ele>273</ele>
        <time>2026-07-06T14:55:40.255Z</time>
      </trkpt>
      <trkpt lat="31.6281839824062" lon="34.898459946329744">
        <ele>274</ele>
        <time>2026-07-06T14:55:41.255Z</time>
      </trkpt>
      <trkpt lat="31.62830784831139" lon="34.898467955704064">
        <ele>274</ele>
        <time>2026-07-06T14:55:42.255Z</time>
      </trkpt>
      <trkpt lat="31.6283918536095" lon="34.89843088906476">
        <ele>274</ele>
        <time>2026-07-06T14:55:43.255Z</time>
      </trkpt>
      <trkpt lat="31.62846486930098" lon="34.89837091188962">
        <ele>273</ele>
        <time>2026-07-06T14:55:44.255Z</time>
      </trkpt>
      <trkpt lat="31.62856694225744" lon="34.898328816108304">
        <ele>273</ele>
        <time>2026-07-06T14:55:45.255Z</time>
      </trkpt>
      <trkpt lat="31.628781891512467" lon="34.89831596385649">
        <ele>269</ele>
        <time>2026-07-06T14:55:46.255Z</time>
      </trkpt>
      <trkpt lat="31.62886887704288" lon="34.89828895550122">
        <ele>269</ele>
        <time>2026-07-06T14:55:47.255Z</time>
      </trkpt>
      <trkpt lat="31.62902794694218" lon="34.8981179646727">
        <ele>269</ele>
        <time>2026-07-06T14:55:48.255Z</time>
      </trkpt>
      <trkpt lat="31.62914995020218" lon="34.89788494775932">
        <ele>269</ele>
        <time>2026-07-06T14:55:49.255Z</time>
      </trkpt>
      <trkpt lat="31.629387996257574" lon="34.89754184851517">
        <ele>265</ele>
        <time>2026-07-06T14:55:50.255Z</time>
      </trkpt>
      <trkpt lat="31.629725880095197" lon="34.897219610897146">
        <ele>265</ele>
        <time>2026-07-06T14:55:51.255Z</time>
      </trkpt>
      <trkpt lat="31.630007884577093" lon="34.89695474275101">
        <ele>265</ele>
        <time>2026-07-06T14:55:52.255Z</time>
      </trkpt>
      <trkpt lat="31.630639693825835" lon="34.896487032543575">
        <ele>253</ele>
        <time>2026-07-06T14:55:53.255Z</time>
      </trkpt>
      <trkpt lat="31.630820929202905" lon="34.89641885972959">
        <ele>253</ele>
        <time>2026-07-06T14:55:54.255Z</time>
      </trkpt>
      <trkpt lat="31.63095485339213" lon="34.89634081489609">
        <ele>253</ele>
        <time>2026-07-06T14:55:55.255Z</time>
      </trkpt>
      <trkpt lat="31.631064935722907" lon="34.89649187542108">
        <ele>253</ele>
        <time>2026-07-06T14:55:56.255Z</time>
      </trkpt>
      <trkpt lat="31.631200908821842" lon="34.89708997079186">
        <ele>258</ele>
        <time>2026-07-06T14:55:57.255Z</time>
      </trkpt>
      <trkpt lat="31.631216469179037" lon="34.897188125288395">
        <ele>258</ele>
        <time>2026-07-06T14:55:58.255Z</time>
      </trkpt>
      <trkpt lat="31.631216469179037" lon="34.897188125288395">
        <ele>258</ele>
        <time>2026-07-06T14:55:59.255Z</time>
      </trkpt>
      <trkpt lat="31.63124989639036" lon="34.897398983629024">
        <ele>258</ele>
        <time>2026-07-06T14:56:00.255Z</time>
      </trkpt>
      <trkpt lat="31.631358861134025" lon="34.898664837300736">
        <ele>261</ele>
        <time>2026-07-06T14:56:01.255Z</time>
      </trkpt>
      <trkpt lat="31.631407848702548" lon="34.89890083444642">
        <ele>261</ele>
        <time>2026-07-06T14:56:02.255Z</time>
      </trkpt>
      <trkpt lat="31.631456650006548" lon="34.8989991821125">
        <ele>261</ele>
        <time>2026-07-06T14:56:03.255Z</time>
      </trkpt>
      <trkpt lat="31.631519979943036" lon="34.89907070768783">
        <ele>261</ele>
        <time>2026-07-06T14:56:04.255Z</time>
      </trkpt>
      <trkpt lat="31.631719841772018" lon="34.89915787948276">
        <ele>261</ele>
        <time>2026-07-06T14:56:05.255Z</time>
      </trkpt>
      <trkpt lat="31.632207854812023" lon="34.89929888172371">
        <ele>272</ele>
        <time>2026-07-06T14:56:06.255Z</time>
      </trkpt>
      <trkpt lat="31.632879897196887" lon="34.899592993399345">
        <ele>277</ele>
        <time>2026-07-06T14:56:07.255Z</time>
      </trkpt>
      <trkpt lat="31.63309894427133" lon="34.89971387907223">
        <ele>277</ele>
        <time>2026-07-06T14:56:08.255Z</time>
      </trkpt>
      <trkpt lat="31.633567958330392" lon="34.90008491799425">
        <ele>284</ele>
        <time>2026-07-06T14:56:09.255Z</time>
      </trkpt>
      <trkpt lat="31.633711940803646" lon="34.90013688579508">
        <ele>287</ele>
        <time>2026-07-06T14:56:10.255Z</time>
      </trkpt>
      <trkpt lat="31.633819974224714" lon="34.900137817117674">
        <ele>287</ele>
        <time>2026-07-06T14:56:11.255Z</time>
      </trkpt>
      <trkpt lat="31.63447394895123" lon="34.89995993450194">
        <ele>290</ele>
        <time>2026-07-06T14:56:12.255Z</time>
      </trkpt>
      <trkpt lat="31.634537837681275" lon="34.89990889802372">
        <ele>290</ele>
        <time>2026-07-06T14:56:13.255Z</time>
      </trkpt>
      <trkpt lat="31.63468386906424" lon="34.899682959162064">
        <ele>290</ele>
        <time>2026-07-06T14:56:14.255Z</time>
      </trkpt>
      <trkpt lat="31.634743846239385" lon="34.89964067711623">
        <ele>290</ele>
        <time>2026-07-06T14:56:15.255Z</time>
      </trkpt>
      <trkpt lat="31.634802892091933" lon="34.899627638599895">
        <ele>290</ele>
        <time>2026-07-06T14:56:16.255Z</time>
      </trkpt>
      <trkpt lat="31.635232976866504" lon="34.899722819769146">
        <ele>290</ele>
        <time>2026-07-06T14:56:17.255Z</time>
      </trkpt>
      <trkpt lat="31.635517961580707" lon="34.89974889680182">
        <ele>284</ele>
        <time>2026-07-06T14:56:18.255Z</time>
      </trkpt>
      <trkpt lat="31.635851933863428" lon="34.89989697709449">
        <ele>284</ele>
        <time>2026-07-06T14:56:19.255Z</time>
      </trkpt>
      <trkpt lat="31.636135987255038" lon="34.89994987621792">
        <ele>284</ele>
        <time>2026-07-06T14:56:20.255Z</time>
      </trkpt>
      <trkpt lat="31.636266931211953" lon="34.90000370666393">
        <ele>278</ele>
        <time>2026-07-06T14:56:21.255Z</time>
      </trkpt>
      <trkpt lat="31.636342927135743" lon="34.900062938781">
        <ele>278</ele>
        <time>2026-07-06T14:56:22.255Z</time>
      </trkpt>
      <trkpt lat="31.63641892305953" lon="34.89990889802372">
        <ele>278</ele>
        <time>2026-07-06T14:56:23.255Z</time>
      </trkpt>
      <trkpt lat="31.636732965038707" lon="34.89947788192655">
        <ele>278</ele>
        <time>2026-07-06T14:56:24.255Z</time>
      </trkpt>
      <trkpt lat="31.636860928763323" lon="34.89938381834441">
        <ele>278</ele>
        <time>2026-07-06T14:56:25.255Z</time>
      </trkpt>
      <trkpt lat="31.63731783562864" lon="34.8991377629147">
        <ele>271</ele>
        <time>2026-07-06T14:56:26.255Z</time>
      </trkpt>
      <trkpt lat="31.637475067169003" lon="34.89908947921332">
        <ele>271</ele>
        <time>2026-07-06T14:56:27.255Z</time>
      </trkpt>
      <trkpt lat="31.637475067169003" lon="34.89908947921332">
        <ele>271</ele>
        <time>2026-07-06T14:56:28.255Z</time>
      </trkpt>
      <trkpt lat="31.637507080380033" lon="34.89907964838474">
        <ele>271</ele>
        <time>2026-07-06T14:56:29.255Z</time>
      </trkpt>
      <trkpt lat="31.637573949342382" lon="34.89934097750502">
        <ele>278</ele>
        <time>2026-07-06T14:56:30.255Z</time>
      </trkpt>
      <trkpt lat="31.637599840110536" lon="34.89980291351235">
        <ele>278</ele>
        <time>2026-07-06T14:56:31.255Z</time>
      </trkpt>
      <trkpt lat="31.637569851522965" lon="34.900253859913065">
        <ele>282</ele>
        <time>2026-07-06T14:56:32.255Z</time>
      </trkpt>
      <trkpt lat="31.63742195749481" lon="34.90120697545723">
        <ele>285</ele>
        <time>2026-07-06T14:56:33.255Z</time>
      </trkpt>
      <trkpt lat="31.637404821159052" lon="34.901394916356985">
        <ele>285</ele>
        <time>2026-07-06T14:56:34.255Z</time>
      </trkpt>
      <trkpt lat="31.63744598561777" lon="34.90158695507616">
        <ele>285</ele>
        <time>2026-07-06T14:56:35.255Z</time>
      </trkpt>
      <trkpt lat="31.63749888474119" lon="34.901696851142425">
        <ele>285</ele>
        <time>2026-07-06T14:56:36.255Z</time>
      </trkpt>
      <trkpt lat="31.63788296217955" lon="34.90226793815795">
        <ele>293</ele>
        <time>2026-07-06T14:56:37.255Z</time>
      </trkpt>
      <trkpt lat="31.63817595626807" lon="34.902734717042776">
        <ele>298</ele>
        <time>2026-07-06T14:56:38.255Z</time>
      </trkpt>
      <trkpt lat="31.638290881476347" lon="34.902863984619025">
        <ele>298</ele>
        <time>2026-07-06T14:56:39.255Z</time>
      </trkpt>
      <trkpt lat="31.63837395545186" lon="34.90289285561948">
        <ele>298</ele>
        <time>2026-07-06T14:56:40.255Z</time>
      </trkpt>
      <trkpt lat="31.638704947502276" lon="34.90285783788989">
        <ele>291</ele>
        <time>2026-07-06T14:56:41.255Z</time>
      </trkpt>
      <trkpt lat="31.638872958098492" lon="34.90286882749652">
        <ele>291</ele>
        <time>2026-07-06T14:56:42.255Z</time>
      </trkpt>
      <trkpt lat="31.639122925083107" lon="34.90298598787902">
        <ele>291</ele>
        <time>2026-07-06T14:56:43.255Z</time>
      </trkpt>
      <trkpt lat="31.639642975620397" lon="34.903181938153104">
        <ele>281</ele>
        <time>2026-07-06T14:56:44.255Z</time>
      </trkpt>
      <trkpt lat="31.639844886359086" lon="34.90331884257463">
        <ele>281</ele>
        <time>2026-07-06T14:56:45.255Z</time>
      </trkpt>
      <trkpt lat="31.63992591142489" lon="34.90341495506648">
        <ele>283</ele>
        <time>2026-07-06T14:56:46.255Z</time>
      </trkpt>
      <trkpt lat="31.639960929154476" lon="34.90348778449344">
        <ele>283</ele>
        <time>2026-07-06T14:56:47.255Z</time>
      </trkpt>
      <trkpt lat="31.639984957277438" lon="34.90358799480471">
        <ele>283</ele>
        <time>2026-07-06T14:56:48.255Z</time>
      </trkpt>
      <trkpt lat="31.639983839690323" lon="34.90371390961961">
        <ele>283</ele>
        <time>2026-07-06T14:56:49.255Z</time>
      </trkpt>
      <trkpt lat="31.63986798315945" lon="34.904179943446366">
        <ele>283</ele>
        <time>2026-07-06T14:56:50.255Z</time>
      </trkpt>
      <trkpt lat="31.639614849678015" lon="34.90482590879856">
        <ele>290</ele>
        <time>2026-07-06T14:56:51.255Z</time>
      </trkpt>
      <trkpt lat="31.63948092548879" lon="34.90523997482449">
        <ele>300</ele>
        <time>2026-07-06T14:56:52.255Z</time>
      </trkpt>
      <trkpt lat="31.639367862925706" lon="34.90576989738129">
        <ele>290</ele>
        <time>2026-07-06T14:56:53.255Z</time>
      </trkpt>
      <trkpt lat="31.639275848253277" lon="34.906388854378214">
        <ele>293</ele>
        <time>2026-07-06T14:56:54.255Z</time>
      </trkpt>
      <trkpt lat="31.63927541426011" lon="34.90644115055514">
        <ele>295</ele>
        <time>2026-07-06T14:56:55.255Z</time>
      </trkpt>
      <trkpt lat="31.63927541426011" lon="34.90644115055514">
        <ele>295</ele>
        <time>2026-07-06T14:56:56.255Z</time>
      </trkpt>
      <trkpt lat="31.63927286802097" lon="34.90674797237101">
        <ele>297</ele>
        <time>2026-07-06T14:56:57.255Z</time>
      </trkpt>
      <trkpt lat="31.63909591672784" lon="34.90680888086875">
        <ele>297</ele>
        <time>2026-07-06T14:56:58.255Z</time>
      </trkpt>
      <trkpt lat="31.637923407336" lon="34.907522186582355">
        <ele>299.5</ele>
        <time>2026-07-06T14:56:59.255Z</time>
      </trkpt>
      <trkpt lat="31.637923407336" lon="34.907522186582355">
        <ele>299.5</ele>
        <time>2026-07-06T14:57:00.255Z</time>
      </trkpt>
      <trkpt lat="31.63784794444996" lon="34.907568095048546">
        <ele>302</ele>
        <time>2026-07-06T14:57:01.255Z</time>
      </trkpt>
      <trkpt lat="31.63743182951432" lon="34.90804791244972">
        <ele>315</ele>
        <time>2026-07-06T14:57:02.255Z</time>
      </trkpt>
      <trkpt lat="31.637045516901736" lon="34.90852772985088">
        <ele>331</ele>
        <time>2026-07-06T14:57:03.255Z</time>
      </trkpt>
      <trkpt lat="31.636837645698435" lon="34.908711014137666">
        <ele>334</ele>
        <time>2026-07-06T14:57:04.255Z</time>
      </trkpt>
      <trkpt lat="31.636480949144385" lon="34.908841958094584">
        <ele>334</ele>
        <time>2026-07-06T14:57:05.255Z</time>
      </trkpt>
      <trkpt lat="31.636399365285026" lon="34.90893788432191">
        <ele>334</ele>
        <time>2026-07-06T14:57:06.255Z</time>
      </trkpt>
      <trkpt lat="31.636391914704262" lon="34.9091036597439">
        <ele>334</ele>
        <time>2026-07-06T14:57:07.255Z</time>
      </trkpt>
      <trkpt lat="31.63632983330611" lon="34.909199666344364">
        <ele>346</ele>
        <time>2026-07-06T14:57:08.255Z</time>
      </trkpt>
      <trkpt lat="31.63632983330611" lon="34.909199666344364">
        <ele>346</ele>
        <time>2026-07-06T14:57:09.255Z</time>
      </trkpt>
      <trkpt lat="31.636257617986" lon="34.90931134468268">
        <ele>358</ele>
        <time>2026-07-06T14:57:10.255Z</time>
      </trkpt>
      <trkpt lat="31.636132075700136" lon="34.9092832187403">
        <ele>363</ele>
        <time>2026-07-06T14:57:11.255Z</time>
      </trkpt>
      <trkpt lat="31.636025346130697" lon="34.90934915638005">
        <ele>363</ele>
        <time>2026-07-06T14:57:12.255Z</time>
      </trkpt>
      <trkpt lat="31.635873540547642" lon="34.90948121792409">
        <ele>363</ele>
        <time>2026-07-06T14:57:13.255Z</time>
      </trkpt>
      <trkpt lat="31.63586441358621" lon="34.90974925256705">
        <ele>363</ele>
        <time>2026-07-06T14:57:14.255Z</time>
      </trkpt>
      <trkpt lat="31.63597598603314" lon="34.90992378242144">
        <ele>363</ele>
        <time>2026-07-06T14:57:15.255Z</time>
      </trkpt>
      <trkpt lat="31.635871864166973" lon="34.910115821140614">
        <ele>380</ele>
        <time>2026-07-06T14:57:16.255Z</time>
      </trkpt>
      <trkpt lat="31.635708323919214" lon="34.91012457557301">
        <ele>380</ele>
        <time>2026-07-06T14:57:17.255Z</time>
      </trkpt>
      <trkpt lat="31.635611838898328" lon="34.91023782440062">
        <ele>380</ele>
        <time>2026-07-06T14:57:18.255Z</time>
      </trkpt>
      <trkpt lat="31.635715960764497" lon="34.91054329821192">
        <ele>380</ele>
        <time>2026-07-06T14:57:19.255Z</time>
      </trkpt>
      <trkpt lat="31.635723225080742" lon="34.91084001759082">
        <ele>380</ele>
        <time>2026-07-06T14:57:20.255Z</time>
      </trkpt>
      <trkpt lat="31.635401918785316" lon="34.91106781909767">
        <ele>376</ele>
        <time>2026-07-06T14:57:21.255Z</time>
      </trkpt>
      <trkpt lat="31.635279814179317" lon="34.91105090355853">
        <ele>379.5</ele>
        <time>2026-07-06T14:57:22.255Z</time>
      </trkpt>
      <trkpt lat="31.635279814179317" lon="34.91105090355853">
        <ele>379.5</ele>
        <time>2026-07-06T14:57:23.255Z</time>
      </trkpt>
      <trkpt lat="31.635241917563423" lon="34.911045653619894">
        <ele>383</ele>
        <time>2026-07-06T14:57:24.255Z</time>
      </trkpt>
      <trkpt lat="31.634896955674073" lon="34.910867957268685">
        <ele>388</ele>
        <time>2026-07-06T14:57:25.255Z</time>
      </trkpt>
      <trkpt lat="31.63451697605514" lon="34.91074185618926">
        <ele>388</ele>
        <time>2026-07-06T14:57:26.255Z</time>
      </trkpt>
      <trkpt lat="31.63432288842625" lon="34.91058893301909">
        <ele>382</ele>
        <time>2026-07-06T14:57:27.255Z</time>
      </trkpt>
      <trkpt lat="31.634202934075958" lon="34.9104319120295">
        <ele>382</ele>
        <time>2026-07-06T14:57:28.255Z</time>
      </trkpt>
      <trkpt lat="31.634099557267863" lon="34.91037286617695">
        <ele>382</ele>
        <time>2026-07-06T14:57:29.255Z</time>
      </trkpt>
      <trkpt lat="31.634096671289637" lon="34.91028231861009">
        <ele>385</ele>
        <time>2026-07-06T14:57:30.255Z</time>
      </trkpt>
      <trkpt lat="31.634096671289637" lon="34.91028231861009">
        <ele>385</ele>
        <time>2026-07-06T14:57:31.255Z</time>
      </trkpt>
      <trkpt lat="31.634089126454796" lon="34.91004559941692">
        <ele>388</ele>
        <time>2026-07-06T14:57:32.255Z</time>
      </trkpt>
      <trkpt lat="31.63398407326603" lon="34.909848531555724">
        <ele>388</ele>
        <time>2026-07-06T14:57:33.255Z</time>
      </trkpt>
      <trkpt lat="31.63390919492936" lon="34.90977979994818">
        <ele>388</ele>
        <time>2026-07-06T14:57:34.255Z</time>
      </trkpt>
      <trkpt lat="31.633677668132133" lon="34.90962222016503">
        <ele>388</ele>
        <time>2026-07-06T14:57:35.255Z</time>
      </trkpt>
      <trkpt lat="31.633583977079034" lon="34.909585339790254">
        <ele>391</ele>
        <time>2026-07-06T14:57:36.255Z</time>
      </trkpt>
      <trkpt lat="31.633481717858054" lon="34.90954063630567">
        <ele>391</ele>
        <time>2026-07-06T14:57:37.255Z</time>
      </trkpt>
      <trkpt lat="31.633457317206055" lon="34.909509157601946">
        <ele>391</ele>
        <time>2026-07-06T14:57:38.255Z</time>
      </trkpt>
      <trkpt lat="31.63345357067492" lon="34.90948858141509">
        <ele>391</ele>
        <time>2026-07-06T14:57:39.255Z</time>
      </trkpt>
      <trkpt lat="31.63345357067492" lon="34.90948858141509">
        <ele>391</ele>
        <time>2026-07-06T14:57:40.255Z</time>
      </trkpt>
      <trkpt lat="31.633457317206055" lon="34.909509157601946">
        <ele>391</ele>
        <time>2026-07-06T14:57:41.255Z</time>
      </trkpt>
      <trkpt lat="31.633481717858054" lon="34.90954063630567">
        <ele>391</ele>
        <time>2026-07-06T14:57:42.255Z</time>
      </trkpt>
      <trkpt lat="31.633583977079034" lon="34.909585339790254">
        <ele>391</ele>
        <time>2026-07-06T14:57:43.255Z</time>
      </trkpt>
      <trkpt lat="31.633677668132133" lon="34.90962222016503">
        <ele>388</ele>
        <time>2026-07-06T14:57:44.255Z</time>
      </trkpt>
      <trkpt lat="31.63390919492936" lon="34.90977979994818">
        <ele>388</ele>
        <time>2026-07-06T14:57:45.255Z</time>
      </trkpt>
      <trkpt lat="31.63398407326603" lon="34.909848531555724">
        <ele>388</ele>
        <time>2026-07-06T14:57:46.255Z</time>
      </trkpt>
      <trkpt lat="31.634089126454796" lon="34.91004559941692">
        <ele>388</ele>
        <time>2026-07-06T14:57:47.255Z</time>
      </trkpt>
      <trkpt lat="31.634099557267863" lon="34.91037286617695">
        <ele>382</ele>
        <time>2026-07-06T14:57:48.255Z</time>
      </trkpt>
      <trkpt lat="31.634202934075958" lon="34.9104319120295">
        <ele>382</ele>
        <time>2026-07-06T14:57:49.255Z</time>
      </trkpt>
      <trkpt lat="31.63432288842625" lon="34.91058893301909">
        <ele>382</ele>
        <time>2026-07-06T14:57:50.255Z</time>
      </trkpt>
      <trkpt lat="31.63451697605514" lon="34.91074185618926">
        <ele>388</ele>
        <time>2026-07-06T14:57:51.255Z</time>
      </trkpt>
      <trkpt lat="31.634896955674073" lon="34.910867957268685">
        <ele>388</ele>
        <time>2026-07-06T14:57:52.255Z</time>
      </trkpt>
      <trkpt lat="31.635241917563423" lon="34.911045653619894">
        <ele>383</ele>
        <time>2026-07-06T14:57:53.255Z</time>
      </trkpt>
      <trkpt lat="31.635401918785316" lon="34.91106781909767">
        <ele>376</ele>
        <time>2026-07-06T14:57:54.255Z</time>
      </trkpt>
      <trkpt lat="31.635787858868863" lon="34.91116486291211">
        <ele>376</ele>
        <time>2026-07-06T14:57:55.255Z</time>
      </trkpt>
      <trkpt lat="31.636142879042243" lon="34.911219997209756">
        <ele>375</ele>
        <time>2026-07-06T14:57:56.255Z</time>
      </trkpt>
      <trkpt lat="31.636617853565912" lon="34.911338833972934">
        <ele>375</ele>
        <time>2026-07-06T14:57:57.255Z</time>
      </trkpt>
      <trkpt lat="31.636814921427106" lon="34.9113658423282">
        <ele>375</ele>
        <time>2026-07-06T14:57:58.255Z</time>
      </trkpt>
      <trkpt lat="31.6369348757774" lon="34.911409987019226">
        <ele>375</ele>
        <time>2026-07-06T14:57:59.255Z</time>
      </trkpt>
      <trkpt lat="31.63707289778604" lon="34.91154391120845">
        <ele>366</ele>
        <time>2026-07-06T14:58:00.255Z</time>
      </trkpt>
      <trkpt lat="31.637135855193492" lon="34.91166982602335">
        <ele>366</ele>
        <time>2026-07-06T14:58:01.255Z</time>
      </trkpt>
      <trkpt lat="31.637120954031964" lon="34.9117707813927">
        <ele>358</ele>
        <time>2026-07-06T14:58:02.255Z</time>
      </trkpt>
      <trkpt lat="31.63703191959184" lon="34.91190191161413">
        <ele>358</ele>
        <time>2026-07-06T14:58:03.255Z</time>
      </trkpt>
      <trkpt lat="31.636831871498345" lon="34.91184491467129">
        <ele>364</ele>
        <time>2026-07-06T14:58:04.255Z</time>
      </trkpt>
      <trkpt lat="31.636772825645792" lon="34.911846963581006">
        <ele>364</ele>
        <time>2026-07-06T14:58:05.255Z</time>
      </trkpt>
      <trkpt lat="31.63664486192118" lon="34.91188999068491">
        <ele>364</ele>
        <time>2026-07-06T14:58:06.255Z</time>
      </trkpt>
      <trkpt lat="31.636298968709237" lon="34.91191886168537">
        <ele>364</ele>
        <time>2026-07-06T14:58:07.255Z</time>
      </trkpt>
      <trkpt lat="31.636217943643434" lon="34.91197194707331">
        <ele>364</ele>
        <time>2026-07-06T14:58:08.255Z</time>
      </trkpt>
      <trkpt lat="31.636188886378456" lon="34.912052972139115">
        <ele>364</ele>
        <time>2026-07-06T14:58:09.255Z</time>
      </trkpt>
      <trkpt lat="31.63619894466249" lon="34.91213064444357">
        <ele>364</ele>
        <time>2026-07-06T14:58:10.255Z</time>
      </trkpt>
      <trkpt lat="31.63626599988936" lon="34.912235883896855">
        <ele>364</ele>
        <time>2026-07-06T14:58:11.255Z</time>
      </trkpt>
      <trkpt lat="31.636413893917513" lon="34.91239886535106">
        <ele>364</ele>
        <time>2026-07-06T14:58:12.255Z</time>
      </trkpt>
      <trkpt lat="31.636445931414798" lon="34.9124929289332">
        <ele>364</ele>
        <time>2026-07-06T14:58:13.255Z</time>
      </trkpt>
      <trkpt lat="31.636443882505088" lon="34.91260599149628">
        <ele>362</ele>
        <time>2026-07-06T14:58:14.255Z</time>
      </trkpt>
      <trkpt lat="31.636389865794552" lon="34.912732837633776">
        <ele>362</ele>
        <time>2026-07-06T14:58:15.255Z</time>
      </trkpt>
      <trkpt lat="31.636260970747344" lon="34.91287793769415">
        <ele>362</ele>
        <time>2026-07-06T14:58:16.255Z</time>
      </trkpt>
      <trkpt lat="31.636080852957388" lon="34.91302788063201">
        <ele>352</ele>
        <time>2026-07-06T14:58:17.255Z</time>
      </trkpt>
      <trkpt lat="31.636048815460104" lon="34.913088975394274">
        <ele>352</ele>
        <time>2026-07-06T14:58:18.255Z</time>
      </trkpt>
      <trkpt lat="31.63602292469195" lon="34.91321973308667">
        <ele>352</ele>
        <time>2026-07-06T14:58:19.255Z</time>
      </trkpt>
      <trkpt lat="31.63601081749821" lon="34.913395939321724">
        <ele>352</ele>
        <time>2026-07-06T14:58:20.255Z</time>
      </trkpt>
      <trkpt lat="31.63599088719467" lon="34.91347584680042">
        <ele>351</ele>
        <time>2026-07-06T14:58:21.255Z</time>
      </trkpt>
      <trkpt lat="31.635938919393844" lon="34.913570841705145">
        <ele>351</ele>
        <time>2026-07-06T14:58:22.255Z</time>
      </trkpt>
      <trkpt lat="31.635628975234084" lon="34.91379882947651">
        <ele>351</ele>
        <time>2026-07-06T14:58:23.255Z</time>
      </trkpt>
      <trkpt lat="31.63546077837335" lon="34.91395491914351">
        <ele>351</ele>
        <time>2026-07-06T14:58:24.255Z</time>
      </trkpt>
      <trkpt lat="31.635881363657447" lon="34.91447608726791">
        <ele>360</ele>
        <time>2026-07-06T14:58:25.255Z</time>
      </trkpt>
      <trkpt lat="31.63616819855425" lon="34.91469392348827">
        <ele>364</ele>
        <time>2026-07-06T14:58:26.255Z</time>
      </trkpt>
      <trkpt lat="31.63616819855425" lon="34.91469392348827">
        <ele>364</ele>
        <time>2026-07-06T14:58:27.255Z</time>
      </trkpt>
      <trkpt lat="31.636191866610762" lon="34.91471189814907">
        <ele>368</ele>
        <time>2026-07-06T14:58:28.255Z</time>
      </trkpt>
      <trkpt lat="31.63636732778774" lon="34.91496316898532">
        <ele>368</ele>
        <time>2026-07-06T14:58:29.255Z</time>
      </trkpt>
      <trkpt lat="31.636531799358096" lon="34.91511348445222">
        <ele>368</ele>
        <time>2026-07-06T14:58:30.255Z</time>
      </trkpt>
      <trkpt lat="31.636724955664388" lon="34.91504121381882">
        <ele>368</ele>
        <time>2026-07-06T14:58:31.255Z</time>
      </trkpt>
      <trkpt lat="31.636772825645792" lon="34.91481583375072">
        <ele>368</ele>
        <time>2026-07-06T14:58:32.255Z</time>
      </trkpt>
      <trkpt lat="31.636761836039167" lon="34.91460796254742">
        <ele>368</ele>
        <time>2026-07-06T14:58:33.255Z</time>
      </trkpt>
      <trkpt lat="31.636798902678464" lon="34.9141558985596">
        <ele>366</ele>
        <time>2026-07-06T14:58:34.255Z</time>
      </trkpt>
      <trkpt lat="31.63687151396856" lon="34.913735979119195">
        <ele>366</ele>
        <time>2026-07-06T14:58:35.255Z</time>
      </trkpt>
      <trkpt lat="31.63687151396856" lon="34.913735979119195">
        <ele>366</ele>
        <time>2026-07-06T14:58:36.255Z</time>
      </trkpt>
      <trkpt lat="31.636926866403076" lon="34.91341586962527">
        <ele>366</ele>
        <time>2026-07-06T14:58:37.255Z</time>
      </trkpt>
      <trkpt lat="31.637313179015663" lon="34.91358052746014">
        <ele>374</ele>
        <time>2026-07-06T14:58:38.255Z</time>
      </trkpt>
      <trkpt lat="31.63752384418675" lon="34.91375598863712">
        <ele>374</ele>
        <time>2026-07-06T14:58:39.255Z</time>
      </trkpt>
      <trkpt lat="31.6376639151051" lon="34.91378690854729">
        <ele>374</ele>
        <time>2026-07-06T14:58:40.255Z</time>
      </trkpt>
      <trkpt lat="31.637828945469014" lon="34.91378690854729">
        <ele>382</ele>
        <time>2026-07-06T14:58:41.255Z</time>
      </trkpt>
      <trkpt lat="31.63817185844865" lon="34.913723951139836">
        <ele>382</ele>
        <time>2026-07-06T14:58:42.255Z</time>
      </trkpt>
      <trkpt lat="31.638354956470913" lon="34.913722833552725">
        <ele>382</ele>
        <time>2026-07-06T14:58:43.255Z</time>
      </trkpt>
      <trkpt lat="31.638535819318946" lon="34.91374499903049">
        <ele>382</ele>
        <time>2026-07-06T14:58:44.255Z</time>
      </trkpt>
      <trkpt lat="31.638871840511378" lon="34.9138338472061">
        <ele>388</ele>
        <time>2026-07-06T14:58:45.255Z</time>
      </trkpt>
      <trkpt lat="31.638988814629364" lon="34.913891961736056">
        <ele>388</ele>
        <time>2026-07-06T14:58:46.255Z</time>
      </trkpt>
      <trkpt lat="31.638724877805817" lon="34.91404581622882">
        <ele>388</ele>
        <time>2026-07-06T14:58:47.255Z</time>
      </trkpt>
      <trkpt lat="31.63864497032713" lon="34.91409685270705">
        <ele>388</ele>
        <time>2026-07-06T14:58:48.255Z</time>
      </trkpt>
      <trkpt lat="31.638523898389725" lon="34.91422798292849">
        <ele>382</ele>
        <time>2026-07-06T14:58:49.255Z</time>
      </trkpt>
      <trkpt lat="31.63848385151812" lon="34.914346633427144">
        <ele>386</ele>
        <time>2026-07-06T14:58:50.255Z</time>
      </trkpt>
      <trkpt lat="31.638468950356593" lon="34.91483874428657">
        <ele>386</ele>
        <time>2026-07-06T14:58:51.255Z</time>
      </trkpt>
      <trkpt lat="31.638541966048077" lon="34.914923867171794">
        <ele>386</ele>
        <time>2026-07-06T14:58:52.255Z</time>
      </trkpt>
      <trkpt lat="31.638666949540383" lon="34.914888663177685">
        <ele>392</ele>
        <time>2026-07-06T14:58:53.255Z</time>
      </trkpt>
      <trkpt lat="31.639014891662036" lon="34.9146858211164">
        <ele>392</ele>
        <time>2026-07-06T14:58:54.255Z</time>
      </trkpt>
      <trkpt lat="31.639434918152578" lon="34.91450272309414">
        <ele>392</ele>
        <time>2026-07-06T14:58:55.255Z</time>
      </trkpt>
      <trkpt lat="31.639803908164886" lon="34.91443883436409">
        <ele>391</ele>
        <time>2026-07-06T14:58:56.255Z</time>
      </trkpt>
      <trkpt lat="31.640126890840982" lon="34.914276970497006">
        <ele>391</ele>
        <time>2026-07-06T14:58:57.255Z</time>
      </trkpt>
      <trkpt lat="31.640195994977564" lon="34.91426784353557">
        <ele>391</ele>
        <time>2026-07-06T14:58:58.255Z</time>
      </trkpt>
      <trkpt lat="31.64029899925662" lon="34.914296900800544">
        <ele>391</ele>
        <time>2026-07-06T14:58:59.255Z</time>
      </trkpt>
      <trkpt lat="31.64044689328477" lon="34.91436786758232">
        <ele>388</ele>
        <time>2026-07-06T14:59:00.255Z</time>
      </trkpt>
      <trkpt lat="31.641128993953668" lon="34.91474281805924">
        <ele>388</ele>
        <time>2026-07-06T14:59:01.255Z</time>
      </trkpt>
      <trkpt lat="31.64142335648021" lon="34.91487971860144">
        <ele>387</ele>
        <time>2026-07-06T14:59:02.255Z</time>
      </trkpt>
      <trkpt lat="31.64142335648021" lon="34.91487971860144">
        <ele>387</ele>
        <time>2026-07-06T14:59:03.255Z</time>
      </trkpt>
      <trkpt lat="31.641440987023138" lon="34.91488791811961">
        <ele>386</ele>
        <time>2026-07-06T14:59:04.255Z</time>
      </trkpt>
      <trkpt lat="31.641881875139816" lon="34.9150078724699">
        <ele>386</ele>
        <time>2026-07-06T14:59:05.255Z</time>
      </trkpt>
      <trkpt lat="31.6422476986553" lon="34.915081446954936">
        <ele>384</ele>
        <time>2026-07-06T14:59:06.255Z</time>
      </trkpt>
      <trkpt lat="31.642373985999242" lon="34.915106965194056">
        <ele>384</ele>
        <time>2026-07-06T14:59:07.255Z</time>
      </trkpt>
      <trkpt lat="31.64250288104645" lon="34.91514868844633">
        <ele>384</ele>
        <time>2026-07-06T14:59:08.255Z</time>
      </trkpt>
      <trkpt lat="31.642590984163977" lon="34.91519897986648">
        <ele>384</ele>
        <time>2026-07-06T14:59:09.255Z</time>
      </trkpt>
      <trkpt lat="31.64264891242941" lon="34.91526193727393">
        <ele>384</ele>
        <time>2026-07-06T14:59:10.255Z</time>
      </trkpt>
      <trkpt lat="31.642696968675338" lon="34.915383940533935">
        <ele>384</ele>
        <time>2026-07-06T14:59:11.255Z</time>
      </trkpt>
      <trkpt lat="31.642712056101384" lon="34.91550147344548">
        <ele>384</ele>
        <time>2026-07-06T14:59:12.255Z</time>
      </trkpt>
      <trkpt lat="31.64267163670074" lon="34.91573616673953">
        <ele>384</ele>
        <time>2026-07-06T14:59:13.255Z</time>
      </trkpt>
      <trkpt lat="31.642693057120436" lon="34.91585612108982">
        <ele>384</ele>
        <time>2026-07-06T14:59:14.255Z</time>
      </trkpt>
      <trkpt lat="31.64277408218624" lon="34.91590939274228">
        <ele>382</ele>
        <time>2026-07-06T14:59:15.255Z</time>
      </trkpt>
      <trkpt lat="31.64325669355519" lon="34.91591479441333">
        <ele>377</ele>
        <time>2026-07-06T14:59:16.255Z</time>
      </trkpt>
      <trkpt lat="31.643408871667287" lon="34.91593193074909">
        <ele>377</ele>
        <time>2026-07-06T14:59:17.255Z</time>
      </trkpt>
      <trkpt lat="31.643610968670494" lon="34.91603772899593">
        <ele>377</ele>
        <time>2026-07-06T14:59:18.255Z</time>
      </trkpt>
      <trkpt lat="31.643805987621977" lon="34.916107578190584">
        <ele>379</ele>
        <time>2026-07-06T14:59:19.255Z</time>
      </trkpt>
      <trkpt lat="31.644167340789004" lon="34.91617742738524">
        <ele>379</ele>
        <time>2026-07-06T14:59:20.255Z</time>
      </trkpt>
      <trkpt lat="31.644421778122076" lon="34.916272236025456">
        <ele>379</ele>
        <time>2026-07-06T14:59:21.255Z</time>
      </trkpt>
      <trkpt lat="31.644657402738723" lon="34.91629682294198">
        <ele>382</ele>
        <time>2026-07-06T14:59:22.255Z</time>
      </trkpt>
      <trkpt lat="31.644758544372586" lon="34.916329978026376">
        <ele>382</ele>
        <time>2026-07-06T14:59:23.255Z</time>
      </trkpt>
      <trkpt lat="31.644832118857625" lon="34.91640578768564">
        <ele>382</ele>
        <time>2026-07-06T14:59:24.255Z</time>
      </trkpt>
      <trkpt lat="31.644981130472893" lon="34.916448814789554">
        <ele>382</ele>
        <time>2026-07-06T14:59:25.255Z</time>
      </trkpt>
      <trkpt lat="31.645403019608626" lon="34.916493332009615">
        <ele>381</ele>
        <time>2026-07-06T14:59:26.255Z</time>
      </trkpt>
      <trkpt lat="31.645476035300106" lon="34.916506556790466">
        <ele>381</ele>
        <time>2026-07-06T14:59:27.255Z</time>
      </trkpt>
      <trkpt lat="31.645546815817358" lon="34.91635195723963">
        <ele>381</ele>
        <time>2026-07-06T14:59:28.255Z</time>
      </trkpt>
      <trkpt lat="31.64564888877382" lon="34.9163048323163">
        <ele>381</ele>
        <time>2026-07-06T14:59:29.255Z</time>
      </trkpt>
      <trkpt lat="31.64609089447761" lon="34.9163048323163">
        <ele>381</ele>
        <time>2026-07-06T14:59:30.255Z</time>
      </trkpt>
      <trkpt lat="31.646306961319752" lon="34.91634283027819">
        <ele>381</ele>
        <time>2026-07-06T14:59:31.255Z</time>
      </trkpt>
      <trkpt lat="31.646417974973126" lon="34.91634394786531">
        <ele>381</ele>
        <time>2026-07-06T14:59:32.255Z</time>
      </trkpt>
      <trkpt lat="31.646743937881528" lon="34.916299989438805">
        <ele>381</ele>
        <time>2026-07-06T14:59:33.255Z</time>
      </trkpt>
      <trkpt lat="31.64684787348318" lon="34.91625882498008">
        <ele>381</ele>
        <time>2026-07-06T14:59:34.255Z</time>
      </trkpt>
      <trkpt lat="31.64692927107802" lon="34.91620555332762">
        <ele>381</ele>
        <time>2026-07-06T14:59:35.255Z</time>
      </trkpt>
      <trkpt lat="31.646901890193714" lon="34.91602096518921">
        <ele>381</ele>
        <time>2026-07-06T14:59:36.255Z</time>
      </trkpt>
      <trkpt lat="31.646856814180094" lon="34.915869904664234">
        <ele>368</ele>
        <time>2026-07-06T14:59:37.255Z</time>
      </trkpt>
      <trkpt lat="31.646715998203664" lon="34.91567991485476">
        <ele>368</ele>
        <time>2026-07-06T14:59:38.255Z</time>
      </trkpt>
      <trkpt lat="31.645485907319618" lon="34.91445895093215">
        <ele>345</ele>
        <time>2026-07-06T14:59:39.255Z</time>
      </trkpt>
      <trkpt lat="31.645398921789205" lon="34.914325958065525">
        <ele>345</ele>
        <time>2026-07-06T14:59:40.255Z</time>
      </trkpt>
      <trkpt lat="31.645371913433937" lon="34.91424884455462">
        <ele>345</ele>
        <time>2026-07-06T14:59:41.255Z</time>
      </trkpt>
      <trkpt lat="31.645365952969325" lon="34.914135968256055">
        <ele>332</ele>
        <time>2026-07-06T14:59:42.255Z</time>
      </trkpt>
      <trkpt lat="31.64538998109229" lon="34.914011916086345">
        <ele>332</ele>
        <time>2026-07-06T14:59:43.255Z</time>
      </trkpt>
      <trkpt lat="31.645486838642213" lon="34.91370495215889">
        <ele>332</ele>
        <time>2026-07-06T14:59:44.255Z</time>
      </trkpt>
      <trkpt lat="31.645724884697607" lon="34.913065878593905">
        <ele>324</ele>
        <time>2026-07-06T14:59:45.255Z</time>
      </trkpt>
      <trkpt lat="31.646154969472178" lon="34.91199597519627">
        <ele>320</ele>
        <time>2026-07-06T14:59:46.255Z</time>
      </trkpt>
      <trkpt lat="31.64619892789868" lon="34.91185795318763">
        <ele>320</ele>
        <time>2026-07-06T14:59:47.255Z</time>
      </trkpt>
      <trkpt lat="31.646287962338803" lon="34.91145990591034">
        <ele>311</ele>
        <time>2026-07-06T14:59:48.255Z</time>
      </trkpt>
      <trkpt lat="31.646311990461765" lon="34.91113394300194">
        <ele>311</ele>
        <time>2026-07-06T14:59:49.255Z</time>
      </trkpt>
      <trkpt lat="31.64632186248128" lon="34.910616872696956">
        <ele>307</ele>
        <time>2026-07-06T14:59:50.255Z</time>
      </trkpt>
      <trkpt lat="31.646383888566135" lon="34.91003982521683">
        <ele>302</ele>
        <time>2026-07-06T14:59:51.255Z</time>
      </trkpt>
      <trkpt lat="31.64644591465099" lon="34.908922796895865">
        <ele>297</ele>
        <time>2026-07-06T14:59:52.255Z</time>
      </trkpt>
      <trkpt lat="31.64687395051585" lon="34.90658890247171">
        <ele>283</ele>
        <time>2026-07-06T14:59:53.255Z</time>
      </trkpt>
      <trkpt lat="31.646920144116585" lon="34.906204638768834">
        <ele>283</ele>
        <time>2026-07-06T14:59:54.255Z</time>
      </trkpt>
      <trkpt lat="31.646966896510875" lon="34.905815718452985">
        <ele>282</ele>
        <time>2026-07-06T14:59:55.255Z</time>
      </trkpt>
      <trkpt lat="31.646972856975484" lon="34.90547783461536">
        <ele>282</ele>
        <time>2026-07-06T14:59:56.255Z</time>
      </trkpt>
      <trkpt lat="31.646950877762233" lon="34.905311872928856">
        <ele>278</ele>
        <time>2026-07-06T14:59:57.255Z</time>
      </trkpt>
      <trkpt lat="31.646882891212766" lon="34.905026701950135">
        <ele>274</ele>
        <time>2026-07-06T14:59:58.255Z</time>
      </trkpt>
      <trkpt lat="31.6467368598298" lon="34.90461896891785">
        <ele>274</ele>
        <time>2026-07-06T14:59:59.255Z</time>
      </trkpt>
      <trkpt lat="31.646719909758566" lon="34.90453794385205">
        <ele>274</ele>
        <time>2026-07-06T15:00:00.255Z</time>
      </trkpt>
      <trkpt lat="31.646725870223175" lon="34.90445282096683">
        <ele>274</ele>
        <time>2026-07-06T15:00:01.255Z</time>
      </trkpt>
      <trkpt lat="31.64667589700823" lon="34.90447414609076">
        <ele>274</ele>
        <time>2026-07-06T15:00:02.255Z</time>
      </trkpt>
      <trkpt lat="31.64667589700823" lon="34.90447414609076">
        <ele>274</ele>
        <time>2026-07-06T15:00:03.255Z</time>
      </trkpt>
      <trkpt lat="31.646725870223175" lon="34.90445282096683">
        <ele>274</ele>
        <time>2026-07-06T15:00:04.255Z</time>
      </trkpt>
      <trkpt lat="31.646770946236796" lon="34.90434683645547">
        <ele>274</ele>
        <time>2026-07-06T15:00:05.255Z</time>
      </trkpt>
      <trkpt lat="31.64718594358532" lon="34.9039938651918">
        <ele>270</ele>
        <time>2026-07-06T15:00:06.255Z</time>
      </trkpt>
      <trkpt lat="31.647689975373968" lon="34.90369193040636">
        <ele>270</ele>
        <time>2026-07-06T15:00:07.255Z</time>
      </trkpt>
      <trkpt lat="31.647967882036443" lon="34.90360997401796">
        <ele>269</ele>
        <time>2026-07-06T15:00:08.255Z</time>
      </trkpt>
      <trkpt lat="31.648540831697154" lon="34.903550741900894">
        <ele>269</ele>
        <time>2026-07-06T15:00:09.255Z</time>
      </trkpt>
      <trkpt lat="31.648774966197646" lon="34.903555957307425">
        <ele>262</ele>
        <time>2026-07-06T15:00:10.255Z</time>
      </trkpt>
      <trkpt lat="31.648879833121892" lon="34.90357588761097">
        <ele>262</ele>
        <time>2026-07-06T15:00:11.255Z</time>
      </trkpt>
      <trkpt lat="31.64901282598852" lon="34.90363996260554">
        <ele>262</ele>
        <time>2026-07-06T15:00:12.255Z</time>
      </trkpt>
      <trkpt lat="31.649239882437286" lon="34.9037889742208">
        <ele>262</ele>
        <time>2026-07-06T15:00:13.255Z</time>
      </trkpt>
      <trkpt lat="31.649412922175518" lon="34.90384094202163">
        <ele>262</ele>
        <time>2026-07-06T15:00:14.255Z</time>
      </trkpt>
      <trkpt lat="31.64957497230712" lon="34.90383982443451">
        <ele>262</ele>
        <time>2026-07-06T15:00:15.255Z</time>
      </trkpt>
      <trkpt lat="31.65046494417932" lon="34.90364163898621">
        <ele>261</ele>
        <time>2026-07-06T15:00:16.255Z</time>
      </trkpt>
      <trkpt lat="31.650644875704756" lon="34.9036308356441">
        <ele>261</ele>
        <time>2026-07-06T15:00:17.255Z</time>
      </trkpt>
      <trkpt lat="31.65113884920937" lon="34.90364163898621">
        <ele>260</ele>
        <time>2026-07-06T15:00:18.255Z</time>
      </trkpt>
      <trkpt lat="31.65124986286275" lon="34.903674980335126">
        <ele>260</ele>
        <time>2026-07-06T15:00:19.255Z</time>
      </trkpt>
      <trkpt lat="31.6513899337811" lon="34.903770720297935">
        <ele>260</ele>
        <time>2026-07-06T15:00:20.255Z</time>
      </trkpt>
      <trkpt lat="31.65184497800123" lon="34.904127975645544">
        <ele>260</ele>
        <time>2026-07-06T15:00:21.255Z</time>
      </trkpt>
      <trkpt lat="31.65232591298951" lon="34.9045159646388">
        <ele>264</ele>
        <time>2026-07-06T15:00:22.255Z</time>
      </trkpt>
      <trkpt lat="31.65257085083211" lon="34.904762951391106">
        <ele>264</ele>
        <time>2026-07-06T15:00:23.255Z</time>
      </trkpt>
      <trkpt lat="31.652990877322647" lon="34.90546293345383">
        <ele>270</ele>
        <time>2026-07-06T15:00:24.255Z</time>
      </trkpt>
      <trkpt lat="31.653121821279566" lon="34.905715880670755">
        <ele>270</ele>
        <time>2026-07-06T15:00:25.255Z</time>
      </trkpt>
      <trkpt lat="31.65320694416479" lon="34.905959887190754">
        <ele>272</ele>
        <time>2026-07-06T15:00:26.255Z</time>
      </trkpt>
      <trkpt lat="31.653223894236024" lon="34.90609492896709">
        <ele>272</ele>
        <time>2026-07-06T15:00:27.255Z</time>
      </trkpt>
      <trkpt lat="31.65324382453957" lon="34.90663286089821">
        <ele>272</ele>
        <time>2026-07-06T15:00:28.255Z</time>
      </trkpt>
      <trkpt lat="31.653222962913432" lon="34.90731887312201">
        <ele>275</ele>
        <time>2026-07-06T15:00:29.255Z</time>
      </trkpt>
      <trkpt lat="31.65323693275236" lon="34.90748688371823">
        <ele>275</ele>
        <time>2026-07-06T15:00:30.255Z</time>
      </trkpt>
      <trkpt lat="31.653267157254717" lon="34.907570082348364">
        <ele>278</ele>
        <time>2026-07-06T15:00:31.255Z</time>
      </trkpt>
      <trkpt lat="31.653267157254717" lon="34.907570082348364">
        <ele>278</ele>
        <time>2026-07-06T15:00:32.255Z</time>
      </trkpt>
      <trkpt lat="31.653288900553186" lon="34.907629934868886">
        <ele>281</ele>
        <time>2026-07-06T15:00:33.255Z</time>
      </trkpt>
      <trkpt lat="31.653425991239235" lon="34.90777987780675">
        <ele>281</ele>
        <time>2026-07-06T15:00:34.255Z</time>
      </trkpt>
      <trkpt lat="31.653603873854962" lon="34.907876921621195">
        <ele>281</ele>
        <time>2026-07-06T15:00:35.255Z</time>
      </trkpt>
      <trkpt lat="31.653752885470233" lon="34.907909890441076">
        <ele>289</ele>
        <time>2026-07-06T15:00:36.255Z</time>
      </trkpt>
      <trkpt lat="31.653904877317807" lon="34.90790076347964">
        <ele>289</ele>
        <time>2026-07-06T15:00:37.255Z</time>
      </trkpt>
      <trkpt lat="31.65401793988089" lon="34.907913801995974">
        <ele>289</ele>
        <time>2026-07-06T15:00:38.255Z</time>
      </trkpt>
      <trkpt lat="31.654079965965746" lon="34.907951986222386">
        <ele>289</ele>
        <time>2026-07-06T15:00:39.255Z</time>
      </trkpt>
      <trkpt lat="31.654153912979826" lon="34.90806765648874">
        <ele>289</ele>
        <time>2026-07-06T15:00:40.255Z</time>
      </trkpt>
      <trkpt lat="31.654237918277932" lon="34.908478928546884">
        <ele>294</ele>
        <time>2026-07-06T15:00:41.255Z</time>
      </trkpt>
      <trkpt lat="31.65426082881378" lon="34.908557904702974">
        <ele>294</ele>
        <time>2026-07-06T15:00:42.255Z</time>
      </trkpt>
      <trkpt lat="31.65431391420172" lon="34.908653830930305">
        <ele>294</ele>
        <time>2026-07-06T15:00:43.255Z</time>
      </trkpt>
      <trkpt lat="31.654611937432257" lon="34.90890584682463">
        <ele>286</ele>
        <time>2026-07-06T15:00:44.255Z</time>
      </trkpt>
      <trkpt lat="31.655490919697826" lon="34.909479727807934">
        <ele>278</ele>
        <time>2026-07-06T15:00:45.255Z</time>
      </trkpt>
      <trkpt lat="31.65562298124186" lon="34.90958794749352">
        <ele>278</ele>
        <time>2026-07-06T15:00:46.255Z</time>
      </trkpt>
      <trkpt lat="31.655950806795452" lon="34.909850394200916">
        <ele>278</ele>
        <time>2026-07-06T15:00:47.255Z</time>
      </trkpt>
      <trkpt lat="31.655949875472857" lon="34.91045594015247">
        <ele>285</ele>
        <time>2026-07-06T15:00:48.255Z</time>
      </trkpt>
      <trkpt lat="31.6558351365291" lon="34.91143382887767">
        <ele>292</ele>
        <time>2026-07-06T15:00:49.255Z</time>
      </trkpt>
      <trkpt lat="31.65575522905041" lon="34.91178922158009">
        <ele>297</ele>
        <time>2026-07-06T15:00:50.255Z</time>
      </trkpt>
      <trkpt lat="31.655676252894317" lon="34.91232882989188">
        <ele>297</ele>
        <time>2026-07-06T15:00:51.255Z</time>
      </trkpt>
      <trkpt lat="31.65560714875774" lon="34.91267192913604">
        <ele>301</ele>
        <time>2026-07-06T15:00:52.255Z</time>
      </trkpt>
      <trkpt lat="31.655599139383416" lon="34.9128842706878">
        <ele>301</ele>
        <time>2026-07-06T15:00:53.255Z</time>
      </trkpt>
      <trkpt lat="31.655614226809462" lon="34.91350713923962">
        <ele>309</ele>
        <time>2026-07-06T15:00:54.255Z</time>
      </trkpt>
      <trkpt lat="31.65536742632167" lon="34.91425685392894">
        <ele>319</ele>
        <time>2026-07-06T15:00:55.255Z</time>
      </trkpt>
      <trkpt lat="31.655092292725826" lon="34.914625753573375">
        <ele>316.5</ele>
        <time>2026-07-06T15:00:56.255Z</time>
      </trkpt>
      <trkpt lat="31.655092292725826" lon="34.914625753573375">
        <ele>316.5</ele>
        <time>2026-07-06T15:00:57.255Z</time>
      </trkpt>
      <trkpt lat="31.655051521697303" lon="34.91468041944535">
        <ele>314</ele>
        <time>2026-07-06T15:00:58.255Z</time>
      </trkpt>
      <trkpt lat="31.654992289580232" lon="34.914893878584216">
        <ele>314</ele>
        <time>2026-07-06T15:00:59.255Z</time>
      </trkpt>
      <trkpt lat="31.654946654773056" lon="34.91513136584605">
        <ele>324</ele>
        <time>2026-07-06T15:01:00.255Z</time>
      </trkpt>
      <trkpt lat="31.65504798267144" lon="34.915196930956775">
        <ele>324</ele>
        <time>2026-07-06T15:01:01.255Z</time>
      </trkpt>
      <trkpt lat="31.65514986936338" lon="34.91531185616505">
        <ele>324</ele>
        <time>2026-07-06T15:01:02.255Z</time>
      </trkpt>
      <trkpt lat="31.655452921735932" lon="34.91553593238151">
        <ele>333</ele>
        <time>2026-07-06T15:01:03.255Z</time>
      </trkpt>
      <trkpt lat="31.655474900949184" lon="34.91560168375675">
        <ele>333</ele>
        <time>2026-07-06T15:01:04.255Z</time>
      </trkpt>
      <trkpt lat="31.65547396962659" lon="34.915682895087066">
        <ele>333</ele>
        <time>2026-07-06T15:01:05.255Z</time>
      </trkpt>
      <trkpt lat="31.655421815561247" lon="34.91595689019464">
        <ele>344</ele>
        <time>2026-07-06T15:01:06.255Z</time>
      </trkpt>
      <trkpt lat="31.655240393919655" lon="34.916295891619384">
        <ele>346</ele>
        <time>2026-07-06T15:01:07.255Z</time>
      </trkpt>
      <trkpt lat="31.65529888097865" lon="34.91635381988482">
        <ele>344</ele>
        <time>2026-07-06T15:01:08.255Z</time>
      </trkpt>
      <trkpt lat="31.65533483003083" lon="34.91643484495062">
        <ele>344</ele>
        <time>2026-07-06T15:01:09.255Z</time>
      </trkpt>
      <trkpt lat="31.655434854077583" lon="34.91658087633358">
        <ele>344</ele>
        <time>2026-07-06T15:01:10.255Z</time>
      </trkpt>
      <trkpt lat="31.655553877105277" lon="34.916837921369925">
        <ele>353</ele>
        <time>2026-07-06T15:01:11.255Z</time>
      </trkpt>
      <trkpt lat="31.655592992654285" lon="34.91700891219845">
        <ele>353</ele>
        <time>2026-07-06T15:01:12.255Z</time>
      </trkpt>
      <trkpt lat="31.65559187506717" lon="34.91710372083866">
        <ele>353</ele>
        <time>2026-07-06T15:01:13.255Z</time>
      </trkpt>
      <trkpt lat="31.65556598429902" lon="34.917200950917625">
        <ele>353</ele>
        <time>2026-07-06T15:01:14.255Z</time>
      </trkpt>
      <trkpt lat="31.655438951897" lon="34.917387960494786">
        <ele>353</ele>
        <time>2026-07-06T15:01:15.255Z</time>
      </trkpt>
      <trkpt lat="31.655282862230006" lon="34.91765897537006">
        <ele>377</ele>
        <time>2026-07-06T15:01:16.255Z</time>
      </trkpt>
      <trkpt lat="31.6550319639228" lon="34.918236954172784">
        <ele>377</ele>
        <time>2026-07-06T15:01:17.255Z</time>
      </trkpt>
      <trkpt lat="31.654791868957695" lon="34.91858992543645">
        <ele>376</ele>
        <time>2026-07-06T15:01:18.255Z</time>
      </trkpt>
      <trkpt lat="31.654754988582916" lon="34.91870187041242">
        <ele>376</ele>
        <time>2026-07-06T15:01:19.255Z</time>
      </trkpt>
      <trkpt lat="31.654797829422307" lon="34.91898797271374">
        <ele>376</ele>
        <time>2026-07-06T15:01:20.255Z</time>
      </trkpt>
      <trkpt lat="31.654818877312962" lon="34.919300897105806">
        <ele>369</ele>
        <time>2026-07-06T15:01:21.255Z</time>
      </trkpt>
      <trkpt lat="31.654783859583375" lon="34.91949498473469">
        <ele>369</ele>
        <time>2026-07-06T15:01:22.255Z</time>
      </trkpt>
      <trkpt lat="31.65470786365959" lon="34.919741971487">
        <ele>369</ele>
        <time>2026-07-06T15:01:23.255Z</time>
      </trkpt>
      <trkpt lat="31.65466483655568" lon="34.919832868572314">
        <ele>369</ele>
        <time>2026-07-06T15:01:24.255Z</time>
      </trkpt>
      <trkpt lat="31.654479875888224" lon="34.92005787611137">
        <ele>369</ele>
        <time>2026-07-06T15:01:25.255Z</time>
      </trkpt>
      <trkpt lat="31.654369979821965" lon="34.92029387325705">
        <ele>377</ele>
        <time>2026-07-06T15:01:26.255Z</time>
      </trkpt>
      <trkpt lat="31.65428895475616" lon="34.92040283800072">
        <ele>377</ele>
        <time>2026-07-06T15:01:27.255Z</time>
      </trkpt>
      <trkpt lat="31.65423382045851" lon="34.92043692440771">
        <ele>377</ele>
        <time>2026-07-06T15:01:28.255Z</time>
      </trkpt>
      <trkpt lat="31.6540443894426" lon="34.92048479438912">
        <ele>377</ele>
        <time>2026-07-06T15:01:29.255Z</time>
      </trkpt>
      <trkpt lat="31.65383465559411" lon="34.92096237661605">
        <ele>380</ele>
        <time>2026-07-06T15:01:30.255Z</time>
      </trkpt>
      <trkpt lat="31.654188558180376" lon="34.92157798085164">
        <ele>380</ele>
        <time>2026-07-06T15:01:31.255Z</time>
      </trkpt>
      <trkpt lat="31.654262132665412" lon="34.921676514782234">
        <ele>380</ele>
        <time>2026-07-06T15:01:32.255Z</time>
      </trkpt>
      <trkpt lat="31.654295660278848" lon="34.92155246261252">
        <ele>380</ele>
        <time>2026-07-06T15:01:33.255Z</time>
      </trkpt>
      <trkpt lat="31.654364391886393" lon="34.921528620754074">
        <ele>380</ele>
        <time>2026-07-06T15:01:34.255Z</time>
      </trkpt>
      <trkpt lat="31.65495987955391" lon="34.92180485103588">
        <ele>367</ele>
        <time>2026-07-06T15:01:35.255Z</time>
      </trkpt>
      <trkpt lat="31.656243987148493" lon="34.92220699613259">
        <ele>360</ele>
        <time>2026-07-06T15:01:36.255Z</time>
      </trkpt>
      <trkpt lat="31.656430996725657" lon="34.922296961895306">
        <ele>360</ele>
        <time>2026-07-06T15:01:37.255Z</time>
      </trkpt>
      <trkpt lat="31.656799986737965" lon="34.92252290075696">
        <ele>360</ele>
        <time>2026-07-06T15:01:38.255Z</time>
      </trkpt>
      <trkpt lat="31.657082922542457" lon="34.92262814021024">
        <ele>353</ele>
        <time>2026-07-06T15:01:39.255Z</time>
      </trkpt>
      <trkpt lat="31.657325997739868" lon="34.92264881557186">
        <ele>353</ele>
        <time>2026-07-06T15:01:40.255Z</time>
      </trkpt>
      <trkpt lat="31.65753945687874" lon="34.92266334420435">
        <ele>353</ele>
        <time>2026-07-06T15:01:41.255Z</time>
      </trkpt>
      <trkpt lat="31.65749233195541" lon="34.92256667291895">
        <ele>353</ele>
        <time>2026-07-06T15:01:42.255Z</time>
      </trkpt>
      <trkpt lat="31.65747035274216" lon="34.92240257387763">
        <ele>358</ele>
        <time>2026-07-06T15:01:43.255Z</time>
      </trkpt>
      <trkpt lat="31.657436825128723" lon="34.92218296800963">
        <ele>358</ele>
        <time>2026-07-06T15:01:44.255Z</time>
      </trkpt>
      <trkpt lat="31.657433844896417" lon="34.9220138398263">
        <ele>358</ele>
        <time>2026-07-06T15:01:45.255Z</time>
      </trkpt>
      <trkpt lat="31.657611913776663" lon="34.92132689627991">
        <ele>349</ele>
        <time>2026-07-06T15:01:46.255Z</time>
      </trkpt>
      <trkpt lat="31.657529957388267" lon="34.92114063176082">
        <ele>349</ele>
        <time>2026-07-06T15:01:47.255Z</time>
      </trkpt>
      <trkpt lat="31.65748395005205" lon="34.92098081680344">
        <ele>349</ele>
        <time>2026-07-06T15:01:48.255Z</time>
      </trkpt>
      <trkpt lat="31.657426953109212" lon="34.920874832292085">
        <ele>338</ele>
        <time>2026-07-06T15:01:49.255Z</time>
      </trkpt>
      <trkpt lat="31.657364927024357" lon="34.9206319433592">
        <ele>338</ele>
        <time>2026-07-06T15:01:50.255Z</time>
      </trkpt>
      <trkpt lat="31.65730699875892" lon="34.92052595884783">
        <ele>338</ele>
        <time>2026-07-06T15:01:51.255Z</time>
      </trkpt>
      <trkpt lat="31.657250933138673" lon="34.92019384921031">
        <ele>338</ele>
        <time>2026-07-06T15:01:52.255Z</time>
      </trkpt>
      <trkpt lat="31.657257824925882" lon="34.92006774813088">
        <ele>338</ele>
        <time>2026-07-06T15:01:53.255Z</time>
      </trkpt>
      <trkpt lat="31.657287999777974" lon="34.91990178644438">
        <ele>326</ele>
        <time>2026-07-06T15:01:54.255Z</time>
      </trkpt>
      <trkpt lat="31.65739882716683" lon="34.91959295987173">
        <ele>326</ele>
        <time>2026-07-06T15:01:55.255Z</time>
      </trkpt>
      <trkpt lat="31.657443903180447" lon="34.91934485553231">
        <ele>326</ele>
        <time>2026-07-06T15:01:56.255Z</time>
      </trkpt>
      <trkpt lat="31.65759198347312" lon="34.919006971694685">
        <ele>310</ele>
        <time>2026-07-06T15:01:57.255Z</time>
      </trkpt>
      <trkpt lat="31.65765792111288" lon="34.91859271940424">
        <ele>310</ele>
        <time>2026-07-06T15:01:58.255Z</time>
      </trkpt>
      <trkpt lat="31.657661832667777" lon="34.91856291708118">
        <ele>310</ele>
        <time>2026-07-06T15:01:59.255Z</time>
      </trkpt>
      <trkpt lat="31.657596826350616" lon="34.91836584921999">
        <ele>302</ele>
        <time>2026-07-06T15:02:00.255Z</time>
      </trkpt>
      <trkpt lat="31.657577389276955" lon="34.918263656334396">
        <ele>302</ele>
        <time>2026-07-06T15:02:01.255Z</time>
      </trkpt>
      <trkpt lat="31.657577389276955" lon="34.918263656334396">
        <ele>302</ele>
        <time>2026-07-06T15:02:02.255Z</time>
      </trkpt>
      <trkpt lat="31.65754187831749" lon="34.918076952950884">
        <ele>302</ele>
        <time>2026-07-06T15:02:03.255Z</time>
      </trkpt>
      <trkpt lat="31.657582856511688" lon="34.91782977993406">
        <ele>302</ele>
        <time>2026-07-06T15:02:04.255Z</time>
      </trkpt>
      <trkpt lat="31.657627932525305" lon="34.91771485472578">
        <ele>302</ele>
        <time>2026-07-06T15:02:05.255Z</time>
      </trkpt>
      <trkpt lat="31.657815873425065" lon="34.917354991674905">
        <ele>306</ele>
        <time>2026-07-06T15:02:06.255Z</time>
      </trkpt>
      <trkpt lat="31.657978854879264" lon="34.916977992288274">
        <ele>306</ele>
        <time>2026-07-06T15:02:07.255Z</time>
      </trkpt>
      <trkpt lat="31.658062860177374" lon="34.916843695570016">
        <ele>306</ele>
        <time>2026-07-06T15:02:08.255Z</time>
      </trkpt>
      <trkpt lat="31.65817797165017" lon="34.9165829252433">
        <ele>292</ele>
        <time>2026-07-06T15:02:09.255Z</time>
      </trkpt>
      <trkpt lat="31.65825694780626" lon="34.91644099167975">
        <ele>292</ele>
        <time>2026-07-06T15:02:10.255Z</time>
      </trkpt>
      <trkpt lat="31.658266819825773" lon="34.91640299371786">
        <ele>292</ele>
        <time>2026-07-06T15:02:11.255Z</time>
      </trkpt>
      <trkpt lat="31.658302955142474" lon="34.91613477281037">
        <ele>292</ele>
        <time>2026-07-06T15:02:12.255Z</time>
      </trkpt>
      <trkpt lat="31.658493876274537" lon="34.91560987939559">
        <ele>286</ele>
        <time>2026-07-06T15:02:13.255Z</time>
      </trkpt>
      <trkpt lat="31.6585998607859" lon="34.9149268474041">
        <ele>284</ele>
        <time>2026-07-06T15:02:14.255Z</time>
      </trkpt>
      <trkpt lat="31.658885963087215" lon="34.913947841091776">
        <ele>281</ele>
        <time>2026-07-06T15:02:15.255Z</time>
      </trkpt>
      <trkpt lat="31.65899697674059" lon="34.91365894482268">
        <ele>281</ele>
        <time>2026-07-06T15:02:16.255Z</time>
      </trkpt>
      <trkpt lat="31.659158840607677" lon="34.913305973559005">
        <ele>273</ele>
        <time>2026-07-06T15:02:17.255Z</time>
      </trkpt>
      <trkpt lat="31.65926985426105" lon="34.91311393483983">
        <ele>273</ele>
        <time>2026-07-06T15:02:18.255Z</time>
      </trkpt>
      <trkpt lat="31.659532859762002" lon="34.91276673777625">
        <ele>279</ele>
        <time>2026-07-06T15:02:19.255Z</time>
      </trkpt>
      <trkpt lat="31.659732907855503" lon="34.912553837430934">
        <ele>265</ele>
        <time>2026-07-06T15:02:20.255Z</time>
      </trkpt>
      <trkpt lat="31.65998790398213" lon="34.912355838247144">
        <ele>265</ele>
        <time>2026-07-06T15:02:21.255Z</time>
      </trkpt>
      <trkpt lat="31.660206951056576" lon="34.91226196092953">
        <ele>265</ele>
        <time>2026-07-06T15:02:22.255Z</time>
      </trkpt>
      <trkpt lat="31.66048392639646" lon="34.912108851494835">
        <ele>263</ele>
        <time>2026-07-06T15:02:23.255Z</time>
      </trkpt>
      <trkpt lat="31.660879924764036" lon="34.9119698981636">
        <ele>263</ele>
        <time>2026-07-06T15:02:24.255Z</time>
      </trkpt>
      <trkpt lat="31.661126911516345" lon="34.91191085231105">
        <ele>261</ele>
        <time>2026-07-06T15:02:25.255Z</time>
      </trkpt>
      <trkpt lat="31.6616857050736" lon="34.91165380727471">
        <ele>253</ele>
        <time>2026-07-06T15:02:26.255Z</time>
      </trkpt>
      <trkpt lat="31.66195783753599" lon="34.91146381746524">
        <ele>253</ele>
        <time>2026-07-06T15:02:27.255Z</time>
      </trkpt>
      <trkpt lat="31.662077978150798" lon="34.91142172168393">
        <ele>253</ele>
        <time>2026-07-06T15:02:28.255Z</time>
      </trkpt>
      <trkpt lat="31.662537664064896" lon="34.91119292897589">
        <ele>253</ele>
        <time>2026-07-06T15:02:29.255Z</time>
      </trkpt>
      <trkpt lat="31.662537664064896" lon="34.91119292897589">
        <ele>253</ele>
        <time>2026-07-06T15:02:30.255Z</time>
      </trkpt>
      <trkpt lat="31.6626079007076" lon="34.9111579711249">
        <ele>253</ele>
        <time>2026-07-06T15:02:31.255Z</time>
      </trkpt>
      <trkpt lat="31.66393112385119" lon="34.91335235342426">
        <ele>274</ele>
        <time>2026-07-06T15:02:32.255Z</time>
      </trkpt>
      <trkpt lat="31.66255500158418" lon="34.91737138295259">
        <ele>308</ele>
        <time>2026-07-06T15:02:33.255Z</time>
      </trkpt>
      <trkpt lat="31.66251840775361" lon="34.91738698989142">
        <ele>313.5</ele>
        <time>2026-07-06T15:02:34.255Z</time>
      </trkpt>
      <trkpt lat="31.66251840775361" lon="34.91738698989142">
        <ele>313.5</ele>
        <time>2026-07-06T15:02:35.255Z</time>
      </trkpt>
      <trkpt lat="31.66255500158418" lon="34.91737138295259">
        <ele>308</ele>
        <time>2026-07-06T15:02:36.255Z</time>
      </trkpt>
      <trkpt lat="31.66227150698613" lon="34.918199515004446">
        <ele>313</ele>
        <time>2026-07-06T15:02:37.255Z</time>
      </trkpt>
      <trkpt lat="31.661790571997848" lon="34.91960394947836">
        <ele>348</ele>
        <time>2026-07-06T15:02:38.255Z</time>
      </trkpt>
      <trkpt lat="31.66188854713489" lon="34.91964902549198">
        <ele>348</ele>
        <time>2026-07-06T15:02:39.255Z</time>
      </trkpt>
      <trkpt lat="31.661968268349057" lon="34.91970695375741">
        <ele>329</ele>
        <time>2026-07-06T15:02:40.255Z</time>
      </trkpt>
      <trkpt lat="31.662021353736996" lon="34.91983193724972">
        <ele>329</ele>
        <time>2026-07-06T15:02:41.255Z</time>
      </trkpt>
      <trkpt lat="31.662100379319273" lon="34.91995319212752">
        <ele>332.5</ele>
        <time>2026-07-06T15:02:42.255Z</time>
      </trkpt>
      <trkpt lat="31.662100379319273" lon="34.91995319212752">
        <ele>332.5</ele>
        <time>2026-07-06T15:02:43.255Z</time>
      </trkpt>
      <trkpt lat="31.662021353736996" lon="34.91983193724972">
        <ele>329</ele>
        <time>2026-07-06T15:02:44.255Z</time>
      </trkpt>
      <trkpt lat="31.661968268349057" lon="34.91970695375741">
        <ele>329</ele>
        <time>2026-07-06T15:02:45.255Z</time>
      </trkpt>
      <trkpt lat="31.66188854713489" lon="34.91964902549198">
        <ele>348</ele>
        <time>2026-07-06T15:02:46.255Z</time>
      </trkpt>
      <trkpt lat="31.661790571997848" lon="34.91960394947836">
        <ele>348</ele>
        <time>2026-07-06T15:02:47.255Z</time>
      </trkpt>
      <trkpt lat="31.661720536538674" lon="34.91957172571656">
        <ele>348</ele>
        <time>2026-07-06T15:02:48.255Z</time>
      </trkpt>
      <trkpt lat="31.661577299123493" lon="34.91951063095429">
        <ele>348</ele>
        <time>2026-07-06T15:02:49.255Z</time>
      </trkpt>
      <trkpt lat="31.66147839266386" lon="34.91951938538669">
        <ele>348</ele>
        <time>2026-07-06T15:02:50.255Z</time>
      </trkpt>
      <trkpt lat="31.661417670430637" lon="34.919541550864466">
        <ele>348</ele>
        <time>2026-07-06T15:02:51.255Z</time>
      </trkpt>
      <trkpt lat="31.661475039902516" lon="34.91977475404236">
        <ele>348</ele>
        <time>2026-07-06T15:02:52.255Z</time>
      </trkpt>
      <trkpt lat="31.661527939025937" lon="34.92006681680829">
        <ele>357</ele>
        <time>2026-07-06T15:02:53.255Z</time>
      </trkpt>
      <trkpt lat="31.661562770491006" lon="34.92042761118176">
        <ele>357</ele>
        <time>2026-07-06T15:02:54.255Z</time>
      </trkpt>
      <trkpt lat="31.661552898471495" lon="34.92075841696766">
        <ele>357</ele>
        <time>2026-07-06T15:02:55.255Z</time>
      </trkpt>
      <trkpt lat="31.6614787651929" lon="34.920946357867415">
        <ele>363</ele>
        <time>2026-07-06T15:02:56.255Z</time>
      </trkpt>
      <trkpt lat="31.66139252472056" lon="34.92106593968867">
        <ele>363</ele>
        <time>2026-07-06T15:02:57.255Z</time>
      </trkpt>
      <trkpt lat="31.661245748279523" lon="34.921169689025795">
        <ele>363</ele>
        <time>2026-07-06T15:02:58.255Z</time>
      </trkpt>
      <trkpt lat="31.661078296476862" lon="34.92120601060702">
        <ele>376</ele>
        <time>2026-07-06T15:02:59.255Z</time>
      </trkpt>
      <trkpt lat="31.660456172983114" lon="34.921235440401034">
        <ele>376</ele>
        <time>2026-07-06T15:03:00.255Z</time>
      </trkpt>
      <trkpt lat="31.66042980299633" lon="34.92124056371275">
        <ele>378.5</ele>
        <time>2026-07-06T15:03:01.255Z</time>
      </trkpt>
      <trkpt lat="31.66042980299633" lon="34.92124056371275">
        <ele>378.5</ele>
        <time>2026-07-06T15:03:02.255Z</time>
      </trkpt>
      <trkpt lat="31.660456172983114" lon="34.921235440401034">
        <ele>376</ele>
        <time>2026-07-06T15:03:03.255Z</time>
      </trkpt>
      <trkpt lat="31.66049174950626" lon="34.921357257396515">
        <ele>376</ele>
        <time>2026-07-06T15:03:04.255Z</time>
      </trkpt>
      <trkpt lat="31.660961694887913" lon="34.92148149583075">
        <ele>376</ele>
        <time>2026-07-06T15:03:05.255Z</time>
      </trkpt>
      <trkpt lat="31.661144420381138" lon="34.92149211290834">
        <ele>363</ele>
        <time>2026-07-06T15:03:06.255Z</time>
      </trkpt>
      <trkpt lat="31.661253012595765" lon="34.921548923586656">
        <ele>363</ele>
        <time>2026-07-06T15:03:07.255Z</time>
      </trkpt>
      <trkpt lat="31.66148677456722" lon="34.92156717750953">
        <ele>363</ele>
        <time>2026-07-06T15:03:08.255Z</time>
      </trkpt>
      <trkpt lat="31.66175350535855" lon="34.92171954188614">
        <ele>363</ele>
        <time>2026-07-06T15:03:09.255Z</time>
      </trkpt>
      <trkpt lat="31.662047430769668" lon="34.9217357468993">
        <ele>342</ele>
        <time>2026-07-06T15:03:10.255Z</time>
      </trkpt>
      <trkpt lat="31.66231602420619" lon="34.921798331777715">
        <ele>342</ele>
        <time>2026-07-06T15:03:11.255Z</time>
      </trkpt>
      <trkpt lat="31.662620939223935" lon="34.92189444426956">
        <ele>342</ele>
        <time>2026-07-06T15:03:12.255Z</time>
      </trkpt>
      <trkpt lat="31.662859544072887" lon="34.92186482821103">
        <ele>347</ele>
        <time>2026-07-06T15:03:13.255Z</time>
      </trkpt>
      <trkpt lat="31.662859916601924" lon="34.92186669085622">
        <ele>347</ele>
        <time>2026-07-06T15:03:14.255Z</time>
      </trkpt>
      <trkpt lat="31.663008555688155" lon="34.92210678582132">
        <ele>347</ele>
        <time>2026-07-06T15:03:15.255Z</time>
      </trkpt>
      <trkpt lat="31.6631914674459" lon="34.922020545348985">
        <ele>347</ele>
        <time>2026-07-06T15:03:16.255Z</time>
      </trkpt>
      <trkpt lat="31.663513891328435" lon="34.92194790218654">
        <ele>347</ele>
        <time>2026-07-06T15:03:17.255Z</time>
      </trkpt>
      <trkpt lat="31.6636189445172" lon="34.921963920935184">
        <ele>352</ele>
        <time>2026-07-06T15:03:18.255Z</time>
      </trkpt>
      <trkpt lat="31.663874871966428" lon="34.922108834731034">
        <ele>352</ele>
        <time>2026-07-06T15:03:19.255Z</time>
      </trkpt>
      <trkpt lat="31.663976944922887" lon="34.922146832692924">
        <ele>352</ele>
        <time>2026-07-06T15:03:20.255Z</time>
      </trkpt>
      <trkpt lat="31.664670966521" lon="34.92220084940346">
        <ele>359</ele>
        <time>2026-07-06T15:03:21.255Z</time>
      </trkpt>
      <trkpt lat="31.664863936562774" lon="34.92216285144157">
        <ele>359</ele>
        <time>2026-07-06T15:03:22.255Z</time>
      </trkpt>
      <trkpt lat="31.6648056357683" lon="34.922479501124016">
        <ele>359</ele>
        <time>2026-07-06T15:03:23.255Z</time>
      </trkpt>
      <trkpt lat="31.664668731346772" lon="34.92294087833779">
        <ele>369</ele>
        <time>2026-07-06T15:03:24.255Z</time>
      </trkpt>
      <trkpt lat="31.664604097558648" lon="34.92322232402613">
        <ele>369</ele>
        <time>2026-07-06T15:03:25.255Z</time>
      </trkpt>
      <trkpt lat="31.664672084108116" lon="34.92330260403386">
        <ele>369</ele>
        <time>2026-07-06T15:03:26.255Z</time>
      </trkpt>
      <trkpt lat="31.664935257154497" lon="34.923407940993215">
        <ele>364</ele>
        <time>2026-07-06T15:03:27.255Z</time>
      </trkpt>
    </trkseg>
  </trk>
</gpx>